<?xml version="1.0" encoding="UTF-8" standalone="no" ?>
<gpx xmlns="http://www.topografix.com/GPX/1/1" xmlns:xsi="http://www.w3.org/2001/XMLSchema-instance" xsi:schemaLocation="http://www.topografix.com/GPX/1/1 http://www.topografix.com/GPX/1/1/gpx.xsd" version="1.1" creator="VisuGPX - https://www.visugpx.com">
  <metadata>
    <name>Ballade MONTAGNAC les statues</name>
  </metadata>
  <trk>
    <name><![CDATA[Ballade MONTAGNAC les statues_1]]></name>
    <trkseg>
      <trkpt lat="43.45346" lon="3.49385">
        <ele>92.099998474121</ele>
        <time>2020-01-15T08:28:55Z</time>
      </trkpt>
      <trkpt lat="43.45346" lon="3.49385">
        <ele>92.099998474121</ele>
        <time>2020-01-15T08:28:55Z</time>
      </trkpt>
      <trkpt lat="43.45347" lon="3.49385">
        <ele>90.099998474121</ele>
        <time>2020-01-15T08:29:01Z</time>
      </trkpt>
      <trkpt lat="43.45347" lon="3.49382">
        <ele>90.099998474121</ele>
        <time>2020-01-15T08:29:19Z</time>
      </trkpt>
      <trkpt lat="43.45344" lon="3.49379">
        <ele>88.099998474121</ele>
        <time>2020-01-15T08:29:26Z</time>
      </trkpt>
      <trkpt lat="43.45341" lon="3.49377">
        <ele>88.099998474121</ele>
        <time>2020-01-15T08:29:33Z</time>
      </trkpt>
      <trkpt lat="43.45337" lon="3.49374">
        <ele>88.099998474121</ele>
        <time>2020-01-15T08:29:41Z</time>
      </trkpt>
      <trkpt lat="43.45331" lon="3.49368">
        <ele>89.099998474121</ele>
        <time>2020-01-15T08:29:49Z</time>
      </trkpt>
      <trkpt lat="43.4533" lon="3.49369">
        <ele>89.099998474121</ele>
        <time>2020-01-15T08:29:50Z</time>
      </trkpt>
      <trkpt lat="43.45328" lon="3.49366">
        <ele>89.099998474121</ele>
        <time>2020-01-15T08:29:54Z</time>
      </trkpt>
      <trkpt lat="43.45325" lon="3.49363">
        <ele>89.099998474121</ele>
        <time>2020-01-15T08:30:00Z</time>
      </trkpt>
      <trkpt lat="43.45321" lon="3.49364">
        <ele>90.099998474121</ele>
        <time>2020-01-15T08:30:04Z</time>
      </trkpt>
      <trkpt lat="43.45314" lon="3.49363">
        <ele>88.099998474121</ele>
        <time>2020-01-15T08:30:13Z</time>
      </trkpt>
      <trkpt lat="43.45311" lon="3.49363">
        <ele>89.099998474121</ele>
        <time>2020-01-15T08:30:17Z</time>
      </trkpt>
      <trkpt lat="43.45309" lon="3.49363">
        <ele>88.099998474121</ele>
        <time>2020-01-15T08:30:19Z</time>
      </trkpt>
      <trkpt lat="43.45303" lon="3.49357">
        <ele>90.099998474121</ele>
        <time>2020-01-15T08:30:27Z</time>
      </trkpt>
      <trkpt lat="43.45303" lon="3.49356">
        <ele>90.099998474121</ele>
        <time>2020-01-15T08:30:28Z</time>
      </trkpt>
      <trkpt lat="43.45297" lon="3.49349">
        <ele>90.099998474121</ele>
        <time>2020-01-15T08:30:37Z</time>
      </trkpt>
      <trkpt lat="43.45292" lon="3.49343">
        <ele>90.099998474121</ele>
        <time>2020-01-15T08:30:47Z</time>
      </trkpt>
      <trkpt lat="43.45291" lon="3.49341">
        <ele>91.099998474121</ele>
        <time>2020-01-15T08:30:49Z</time>
      </trkpt>
      <trkpt lat="43.4529" lon="3.49338">
        <ele>91.099998474121</ele>
        <time>2020-01-15T08:30:52Z</time>
      </trkpt>
      <trkpt lat="43.45291" lon="3.49333">
        <ele>91.099998474121</ele>
        <time>2020-01-15T08:30:57Z</time>
      </trkpt>
      <trkpt lat="43.45293" lon="3.49331">
        <ele>89.099998474121</ele>
        <time>2020-01-15T08:31:00Z</time>
      </trkpt>
      <trkpt lat="43.45298" lon="3.49324">
        <ele>90.099998474121</ele>
        <time>2020-01-15T08:31:09Z</time>
      </trkpt>
      <trkpt lat="43.45299" lon="3.49322">
        <ele>89.099998474121</ele>
        <time>2020-01-15T08:31:11Z</time>
      </trkpt>
      <trkpt lat="43.45306" lon="3.49316">
        <ele>89.099998474121</ele>
        <time>2020-01-15T08:31:25Z</time>
      </trkpt>
      <trkpt lat="43.45312" lon="3.49313">
        <ele>88.099998474121</ele>
        <time>2020-01-15T08:31:33Z</time>
      </trkpt>
      <trkpt lat="43.45315" lon="3.49309">
        <ele>89.099998474121</ele>
        <time>2020-01-15T08:31:39Z</time>
      </trkpt>
      <trkpt lat="43.45317" lon="3.49304">
        <ele>88.099998474121</ele>
        <time>2020-01-15T08:31:44Z</time>
      </trkpt>
      <trkpt lat="43.45318" lon="3.49301">
        <ele>88.099998474121</ele>
        <time>2020-01-15T08:31:48Z</time>
      </trkpt>
      <trkpt lat="43.4532" lon="3.4928">
        <ele>88.099998474121</ele>
        <time>2020-01-15T08:32:04Z</time>
      </trkpt>
      <trkpt lat="43.45321" lon="3.49276">
        <ele>87.099998474121</ele>
        <time>2020-01-15T08:32:07Z</time>
      </trkpt>
      <trkpt lat="43.45321" lon="3.49273">
        <ele>86.099998474121</ele>
        <time>2020-01-15T08:32:10Z</time>
      </trkpt>
      <trkpt lat="43.4532" lon="3.49258">
        <ele>89.099998474121</ele>
        <time>2020-01-15T08:32:21Z</time>
      </trkpt>
      <trkpt lat="43.45317" lon="3.49243">
        <ele>90.099998474121</ele>
        <time>2020-01-15T08:32:31Z</time>
      </trkpt>
      <trkpt lat="43.45316" lon="3.49238">
        <ele>91.099998474121</ele>
        <time>2020-01-15T08:32:36Z</time>
      </trkpt>
      <trkpt lat="43.45314" lon="3.49232">
        <ele>88.099998474121</ele>
        <time>2020-01-15T08:32:40Z</time>
      </trkpt>
      <trkpt lat="43.4531" lon="3.49219">
        <ele>90.099998474121</ele>
        <time>2020-01-15T08:32:53Z</time>
      </trkpt>
      <trkpt lat="43.45308" lon="3.49213">
        <ele>90.099998474121</ele>
        <time>2020-01-15T08:32:57Z</time>
      </trkpt>
      <trkpt lat="43.45306" lon="3.49203">
        <ele>89.099998474121</ele>
        <time>2020-01-15T08:33:06Z</time>
      </trkpt>
      <trkpt lat="43.45305" lon="3.492">
        <ele>89.099998474121</ele>
        <time>2020-01-15T08:33:08Z</time>
      </trkpt>
      <trkpt lat="43.45306" lon="3.49197">
        <ele>89.099998474121</ele>
        <time>2020-01-15T08:33:10Z</time>
      </trkpt>
      <trkpt lat="43.45307" lon="3.49182">
        <ele>91.099998474121</ele>
        <time>2020-01-15T08:33:20Z</time>
      </trkpt>
      <trkpt lat="43.45305" lon="3.49172">
        <ele>89.099998474121</ele>
        <time>2020-01-15T08:33:27Z</time>
      </trkpt>
      <trkpt lat="43.45302" lon="3.4915">
        <ele>87.099998474121</ele>
        <time>2020-01-15T08:33:44Z</time>
      </trkpt>
      <trkpt lat="43.45298" lon="3.49126">
        <ele>85.099998474121</ele>
        <time>2020-01-15T08:34:03Z</time>
      </trkpt>
      <trkpt lat="43.45296" lon="3.49105">
        <ele>84.099998474121</ele>
        <time>2020-01-15T08:34:20Z</time>
      </trkpt>
      <trkpt lat="43.45296" lon="3.49096">
        <ele>84.099998474121</ele>
        <time>2020-01-15T08:34:26Z</time>
      </trkpt>
      <trkpt lat="43.45296" lon="3.49094">
        <ele>84.099998474121</ele>
        <time>2020-01-15T08:34:29Z</time>
      </trkpt>
      <trkpt lat="43.45298" lon="3.4907">
        <ele>86.099998474121</ele>
        <time>2020-01-15T08:34:48Z</time>
      </trkpt>
      <trkpt lat="43.45302" lon="3.49052">
        <ele>89.099998474121</ele>
        <time>2020-01-15T08:34:57Z</time>
      </trkpt>
      <trkpt lat="43.45305" lon="3.49039">
        <ele>89.099998474121</ele>
        <time>2020-01-15T08:35:07Z</time>
      </trkpt>
      <trkpt lat="43.45307" lon="3.49014">
        <ele>89.099998474121</ele>
        <time>2020-01-15T08:35:22Z</time>
      </trkpt>
      <trkpt lat="43.45307" lon="3.49005">
        <ele>88.099998474121</ele>
        <time>2020-01-15T08:35:28Z</time>
      </trkpt>
      <trkpt lat="43.45305" lon="3.48995">
        <ele>86.099998474121</ele>
        <time>2020-01-15T08:35:34Z</time>
      </trkpt>
      <trkpt lat="43.45299" lon="3.48975">
        <ele>89.099998474121</ele>
        <time>2020-01-15T08:35:51Z</time>
      </trkpt>
      <trkpt lat="43.45296" lon="3.48955">
        <ele>90.099998474121</ele>
        <time>2020-01-15T08:36:06Z</time>
      </trkpt>
      <trkpt lat="43.45295" lon="3.48934">
        <ele>89.099998474121</ele>
        <time>2020-01-15T08:36:17Z</time>
      </trkpt>
      <trkpt lat="43.45295" lon="3.48928">
        <ele>89.099998474121</ele>
        <time>2020-01-15T08:36:22Z</time>
      </trkpt>
      <trkpt lat="43.45296" lon="3.48922">
        <ele>89.099998474121</ele>
        <time>2020-01-15T08:36:26Z</time>
      </trkpt>
      <trkpt lat="43.45298" lon="3.48918">
        <ele>90.099998474121</ele>
        <time>2020-01-15T08:36:31Z</time>
      </trkpt>
      <trkpt lat="43.45298" lon="3.48915">
        <ele>89.099998474121</ele>
        <time>2020-01-15T08:36:33Z</time>
      </trkpt>
      <trkpt lat="43.45298" lon="3.4891">
        <ele>90.099998474121</ele>
        <time>2020-01-15T08:36:36Z</time>
      </trkpt>
      <trkpt lat="43.453" lon="3.48903">
        <ele>90.099998474121</ele>
        <time>2020-01-15T08:36:39Z</time>
      </trkpt>
      <trkpt lat="43.45301" lon="3.48886">
        <ele>90.099998474121</ele>
        <time>2020-01-15T08:36:52Z</time>
      </trkpt>
      <trkpt lat="43.453" lon="3.48865">
        <ele>90.099998474121</ele>
        <time>2020-01-15T08:37:07Z</time>
      </trkpt>
      <trkpt lat="43.453" lon="3.48847">
        <ele>91.099998474121</ele>
        <time>2020-01-15T08:37:20Z</time>
      </trkpt>
      <trkpt lat="43.45299" lon="3.48837">
        <ele>89.099998474121</ele>
        <time>2020-01-15T08:37:27Z</time>
      </trkpt>
      <trkpt lat="43.45294" lon="3.48818">
        <ele>90.099998474121</ele>
        <time>2020-01-15T08:37:41Z</time>
      </trkpt>
      <trkpt lat="43.45291" lon="3.48811">
        <ele>89.099998474121</ele>
        <time>2020-01-15T08:37:47Z</time>
      </trkpt>
      <trkpt lat="43.45289" lon="3.48808">
        <ele>89.099998474121</ele>
        <time>2020-01-15T08:37:50Z</time>
      </trkpt>
      <trkpt lat="43.45288" lon="3.48806">
        <ele>89.099998474121</ele>
        <time>2020-01-15T08:37:53Z</time>
      </trkpt>
      <trkpt lat="43.45287" lon="3.48803">
        <ele>89.099998474121</ele>
        <time>2020-01-15T08:37:56Z</time>
      </trkpt>
      <trkpt lat="43.45285" lon="3.48781">
        <ele>91.099998474121</ele>
        <time>2020-01-15T08:38:10Z</time>
      </trkpt>
      <trkpt lat="43.45284" lon="3.48774">
        <ele>91.099998474121</ele>
        <time>2020-01-15T08:38:14Z</time>
      </trkpt>
      <trkpt lat="43.45285" lon="3.48754">
        <ele>91.099998474121</ele>
        <time>2020-01-15T08:38:29Z</time>
      </trkpt>
      <trkpt lat="43.45283" lon="3.48744">
        <ele>91.099998474121</ele>
        <time>2020-01-15T08:38:36Z</time>
      </trkpt>
      <trkpt lat="43.45276" lon="3.48726">
        <ele>90.099998474121</ele>
        <time>2020-01-15T08:38:49Z</time>
      </trkpt>
      <trkpt lat="43.45272" lon="3.48706">
        <ele>90.099998474121</ele>
        <time>2020-01-15T08:39:04Z</time>
      </trkpt>
      <trkpt lat="43.45271" lon="3.48702">
        <ele>91.099998474121</ele>
        <time>2020-01-15T08:39:07Z</time>
      </trkpt>
      <trkpt lat="43.45267" lon="3.48697">
        <ele>91.099998474121</ele>
        <time>2020-01-15T08:39:13Z</time>
      </trkpt>
      <trkpt lat="43.45265" lon="3.4869">
        <ele>91.099998474121</ele>
        <time>2020-01-15T08:39:18Z</time>
      </trkpt>
      <trkpt lat="43.45265" lon="3.48689">
        <ele>91.099998474121</ele>
        <time>2020-01-15T08:39:18Z</time>
      </trkpt>
      <trkpt lat="43.45263" lon="3.48683">
        <ele>91.099998474121</ele>
        <time>2020-01-15T08:39:27Z</time>
      </trkpt>
      <trkpt lat="43.45259" lon="3.48679">
        <ele>91.099998474121</ele>
        <time>2020-01-15T08:39:36Z</time>
      </trkpt>
      <trkpt lat="43.45258" lon="3.48677">
        <ele>92.099998474121</ele>
        <time>2020-01-15T08:39:42Z</time>
      </trkpt>
      <trkpt lat="43.45258" lon="3.48673">
        <ele>91.099998474121</ele>
        <time>2020-01-15T08:39:49Z</time>
      </trkpt>
      <trkpt lat="43.45257" lon="3.48671">
        <ele>91.099998474121</ele>
        <time>2020-01-15T08:39:54Z</time>
      </trkpt>
      <trkpt lat="43.45257" lon="3.4867">
        <ele>86.099998474121</ele>
        <time>2020-01-15T08:40:28Z</time>
      </trkpt>
      <trkpt lat="43.45257" lon="3.4867">
        <ele>89.099998474121</ele>
        <time>2020-01-15T08:42:25Z</time>
      </trkpt>
      <trkpt lat="43.45257" lon="3.4867">
        <ele>89.099998474121</ele>
        <time>2020-01-15T08:42:30Z</time>
      </trkpt>
      <trkpt lat="43.45256" lon="3.48666">
        <ele>93.099998474121</ele>
        <time>2020-01-15T08:42:40Z</time>
      </trkpt>
      <trkpt lat="43.45255" lon="3.48661">
        <ele>92.099998474121</ele>
        <time>2020-01-15T08:42:46Z</time>
      </trkpt>
      <trkpt lat="43.4525" lon="3.48648">
        <ele>89.099998474121</ele>
        <time>2020-01-15T08:42:59Z</time>
      </trkpt>
      <trkpt lat="43.45248" lon="3.48642">
        <ele>90.099998474121</ele>
        <time>2020-01-15T08:43:05Z</time>
      </trkpt>
      <trkpt lat="43.45247" lon="3.48635">
        <ele>89.099998474121</ele>
        <time>2020-01-15T08:43:10Z</time>
      </trkpt>
      <trkpt lat="43.45247" lon="3.48633">
        <ele>89.099998474121</ele>
        <time>2020-01-15T08:43:11Z</time>
      </trkpt>
      <trkpt lat="43.45246" lon="3.4863">
        <ele>89.099998474121</ele>
        <time>2020-01-15T08:43:14Z</time>
      </trkpt>
      <trkpt lat="43.45242" lon="3.48623">
        <ele>89.099998474121</ele>
        <time>2020-01-15T08:43:21Z</time>
      </trkpt>
      <trkpt lat="43.45241" lon="3.48621">
        <ele>89.099998474121</ele>
        <time>2020-01-15T08:43:24Z</time>
      </trkpt>
      <trkpt lat="43.45242" lon="3.48617">
        <ele>90.099998474121</ele>
        <time>2020-01-15T08:43:28Z</time>
      </trkpt>
      <trkpt lat="43.45242" lon="3.48615">
        <ele>90.099998474121</ele>
        <time>2020-01-15T08:43:31Z</time>
      </trkpt>
      <trkpt lat="43.45246" lon="3.48603">
        <ele>92.099998474121</ele>
        <time>2020-01-15T08:43:42Z</time>
      </trkpt>
      <trkpt lat="43.45249" lon="3.48597">
        <ele>92.099998474121</ele>
        <time>2020-01-15T08:43:48Z</time>
      </trkpt>
      <trkpt lat="43.45251" lon="3.48594">
        <ele>92.099998474121</ele>
        <time>2020-01-15T08:43:50Z</time>
      </trkpt>
      <trkpt lat="43.45258" lon="3.4859">
        <ele>93.099998474121</ele>
        <time>2020-01-15T08:43:58Z</time>
      </trkpt>
      <trkpt lat="43.45267" lon="3.48584">
        <ele>91.099998474121</ele>
        <time>2020-01-15T08:44:08Z</time>
      </trkpt>
      <trkpt lat="43.45274" lon="3.48578">
        <ele>93.099998474121</ele>
        <time>2020-01-15T08:44:18Z</time>
      </trkpt>
      <trkpt lat="43.45287" lon="3.48566">
        <ele>91.099998474121</ele>
        <time>2020-01-15T08:44:32Z</time>
      </trkpt>
      <trkpt lat="43.45299" lon="3.48555">
        <ele>90.099998474121</ele>
        <time>2020-01-15T08:44:50Z</time>
      </trkpt>
      <trkpt lat="43.45303" lon="3.4855">
        <ele>88.099998474121</ele>
        <time>2020-01-15T08:44:55Z</time>
      </trkpt>
      <trkpt lat="43.45305" lon="3.48547">
        <ele>88.099998474121</ele>
        <time>2020-01-15T08:45:00Z</time>
      </trkpt>
      <trkpt lat="43.45316" lon="3.48538">
        <ele>87.099998474121</ele>
        <time>2020-01-15T08:45:13Z</time>
      </trkpt>
      <trkpt lat="43.45324" lon="3.48526">
        <ele>89.099998474121</ele>
        <time>2020-01-15T08:45:25Z</time>
      </trkpt>
      <trkpt lat="43.45326" lon="3.48525">
        <ele>88.099998474121</ele>
        <time>2020-01-15T08:45:27Z</time>
      </trkpt>
      <trkpt lat="43.4533" lon="3.48522">
        <ele>88.099998474121</ele>
        <time>2020-01-15T08:45:32Z</time>
      </trkpt>
      <trkpt lat="43.45333" lon="3.48522">
        <ele>88.099998474121</ele>
        <time>2020-01-15T08:45:35Z</time>
      </trkpt>
      <trkpt lat="43.45336" lon="3.48523">
        <ele>88.099998474121</ele>
        <time>2020-01-15T08:45:38Z</time>
      </trkpt>
      <trkpt lat="43.45337" lon="3.48525">
        <ele>88.099998474121</ele>
        <time>2020-01-15T08:45:40Z</time>
      </trkpt>
      <trkpt lat="43.45338" lon="3.48529">
        <ele>89.099998474121</ele>
        <time>2020-01-15T08:45:43Z</time>
      </trkpt>
      <trkpt lat="43.45338" lon="3.48531">
        <ele>89.099998474121</ele>
        <time>2020-01-15T08:45:45Z</time>
      </trkpt>
      <trkpt lat="43.45337" lon="3.48538">
        <ele>91.099998474121</ele>
        <time>2020-01-15T08:45:52Z</time>
      </trkpt>
      <trkpt lat="43.45335" lon="3.4856">
        <ele>92.099998474121</ele>
        <time>2020-01-15T08:46:06Z</time>
      </trkpt>
      <trkpt lat="43.45335" lon="3.48567">
        <ele>92.099998474121</ele>
        <time>2020-01-15T08:46:11Z</time>
      </trkpt>
      <trkpt lat="43.45336" lon="3.48569">
        <ele>93.099998474121</ele>
        <time>2020-01-15T08:46:13Z</time>
      </trkpt>
      <trkpt lat="43.45337" lon="3.48572">
        <ele>92.099998474121</ele>
        <time>2020-01-15T08:46:16Z</time>
      </trkpt>
      <trkpt lat="43.45343" lon="3.48578">
        <ele>94.099998474121</ele>
        <time>2020-01-15T08:46:23Z</time>
      </trkpt>
      <trkpt lat="43.45358" lon="3.48589">
        <ele>93.099998474121</ele>
        <time>2020-01-15T08:46:39Z</time>
      </trkpt>
      <trkpt lat="43.45368" lon="3.48596">
        <ele>94.099998474121</ele>
        <time>2020-01-15T08:46:49Z</time>
      </trkpt>
      <trkpt lat="43.45376" lon="3.48606">
        <ele>94.099998474121</ele>
        <time>2020-01-15T08:47:01Z</time>
      </trkpt>
      <trkpt lat="43.45387" lon="3.48621">
        <ele>94.099998474121</ele>
        <time>2020-01-15T08:47:16Z</time>
      </trkpt>
      <trkpt lat="43.4539" lon="3.48625">
        <ele>94.099998474121</ele>
        <time>2020-01-15T08:47:20Z</time>
      </trkpt>
      <trkpt lat="43.45391" lon="3.48625">
        <ele>94.099998474121</ele>
        <time>2020-01-15T08:47:21Z</time>
      </trkpt>
      <trkpt lat="43.45392" lon="3.48627">
        <ele>94.099998474121</ele>
        <time>2020-01-15T08:47:23Z</time>
      </trkpt>
      <trkpt lat="43.45395" lon="3.48633">
        <ele>94.099998474121</ele>
        <time>2020-01-15T08:47:27Z</time>
      </trkpt>
      <trkpt lat="43.45396" lon="3.48636">
        <ele>93.099998474121</ele>
        <time>2020-01-15T08:47:30Z</time>
      </trkpt>
      <trkpt lat="43.45399" lon="3.48639">
        <ele>94.099998474121</ele>
        <time>2020-01-15T08:47:33Z</time>
      </trkpt>
      <trkpt lat="43.4541" lon="3.48646">
        <ele>95.099998474121</ele>
        <time>2020-01-15T08:47:44Z</time>
      </trkpt>
      <trkpt lat="43.45413" lon="3.48649">
        <ele>94.099998474121</ele>
        <time>2020-01-15T08:47:48Z</time>
      </trkpt>
      <trkpt lat="43.45416" lon="3.48653">
        <ele>94.099998474121</ele>
        <time>2020-01-15T08:47:52Z</time>
      </trkpt>
      <trkpt lat="43.45428" lon="3.48666">
        <ele>95.099998474121</ele>
        <time>2020-01-15T08:48:07Z</time>
      </trkpt>
      <trkpt lat="43.45434" lon="3.48672">
        <ele>94.099998474121</ele>
        <time>2020-01-15T08:48:15Z</time>
      </trkpt>
      <trkpt lat="43.45444" lon="3.48677">
        <ele>97.099998474121</ele>
        <time>2020-01-15T08:48:23Z</time>
      </trkpt>
      <trkpt lat="43.45448" lon="3.48678">
        <ele>97.099998474121</ele>
        <time>2020-01-15T08:48:27Z</time>
      </trkpt>
      <trkpt lat="43.45457" lon="3.48685">
        <ele>98.099998474121</ele>
        <time>2020-01-15T08:48:39Z</time>
      </trkpt>
      <trkpt lat="43.45459" lon="3.48687">
        <ele>98.099998474121</ele>
        <time>2020-01-15T08:48:41Z</time>
      </trkpt>
      <trkpt lat="43.45461" lon="3.48689">
        <ele>97.099998474121</ele>
        <time>2020-01-15T08:48:44Z</time>
      </trkpt>
      <trkpt lat="43.4547" lon="3.48707">
        <ele>98.099998474121</ele>
        <time>2020-01-15T08:48:57Z</time>
      </trkpt>
      <trkpt lat="43.45474" lon="3.48717">
        <ele>98.099998474121</ele>
        <time>2020-01-15T08:49:06Z</time>
      </trkpt>
      <trkpt lat="43.45476" lon="3.48719">
        <ele>98.099998474121</ele>
        <time>2020-01-15T08:49:09Z</time>
      </trkpt>
      <trkpt lat="43.45487" lon="3.48733">
        <ele>98.099998474121</ele>
        <time>2020-01-15T08:49:23Z</time>
      </trkpt>
      <trkpt lat="43.45494" lon="3.48743">
        <ele>100.09999847412</ele>
        <time>2020-01-15T08:49:34Z</time>
      </trkpt>
      <trkpt lat="43.45501" lon="3.48759">
        <ele>100.09999847412</ele>
        <time>2020-01-15T08:49:46Z</time>
      </trkpt>
      <trkpt lat="43.45507" lon="3.48778">
        <ele>97.099998474121</ele>
        <time>2020-01-15T08:50:00Z</time>
      </trkpt>
      <trkpt lat="43.45512" lon="3.48794">
        <ele>99.099998474121</ele>
        <time>2020-01-15T08:50:11Z</time>
      </trkpt>
      <trkpt lat="43.4552" lon="3.48812">
        <ele>97.099998474121</ele>
        <time>2020-01-15T08:50:25Z</time>
      </trkpt>
      <trkpt lat="43.45524" lon="3.48821">
        <ele>98.099998474121</ele>
        <time>2020-01-15T08:50:31Z</time>
      </trkpt>
      <trkpt lat="43.45524" lon="3.48823">
        <ele>98.099998474121</ele>
        <time>2020-01-15T08:50:32Z</time>
      </trkpt>
      <trkpt lat="43.45525" lon="3.48826">
        <ele>98.099998474121</ele>
        <time>2020-01-15T08:50:33Z</time>
      </trkpt>
      <trkpt lat="43.4553" lon="3.48837">
        <ele>97.099998474121</ele>
        <time>2020-01-15T08:50:42Z</time>
      </trkpt>
      <trkpt lat="43.45532" lon="3.48857">
        <ele>95.099998474121</ele>
        <time>2020-01-15T08:50:57Z</time>
      </trkpt>
      <trkpt lat="43.45532" lon="3.48863">
        <ele>96.099998474121</ele>
        <time>2020-01-15T08:51:02Z</time>
      </trkpt>
      <trkpt lat="43.45535" lon="3.48872">
        <ele>96.099998474121</ele>
        <time>2020-01-15T08:51:08Z</time>
      </trkpt>
      <trkpt lat="43.45544" lon="3.48889">
        <ele>97.099998474121</ele>
        <time>2020-01-15T08:51:23Z</time>
      </trkpt>
      <trkpt lat="43.45551" lon="3.48903">
        <ele>95.099998474121</ele>
        <time>2020-01-15T08:51:33Z</time>
      </trkpt>
      <trkpt lat="43.45558" lon="3.48921">
        <ele>93.099998474121</ele>
        <time>2020-01-15T08:51:47Z</time>
      </trkpt>
      <trkpt lat="43.45565" lon="3.48943">
        <ele>92.099998474121</ele>
        <time>2020-01-15T08:52:02Z</time>
      </trkpt>
      <trkpt lat="43.45568" lon="3.48949">
        <ele>91.099998474121</ele>
        <time>2020-01-15T08:52:06Z</time>
      </trkpt>
      <trkpt lat="43.4557" lon="3.48951">
        <ele>91.099998474121</ele>
        <time>2020-01-15T08:52:07Z</time>
      </trkpt>
      <trkpt lat="43.45577" lon="3.4896">
        <ele>91.099998474121</ele>
        <time>2020-01-15T08:52:17Z</time>
      </trkpt>
      <trkpt lat="43.45583" lon="3.48967">
        <ele>91.099998474121</ele>
        <time>2020-01-15T08:52:25Z</time>
      </trkpt>
      <trkpt lat="43.45591" lon="3.48984">
        <ele>92.099998474121</ele>
        <time>2020-01-15T08:52:39Z</time>
      </trkpt>
      <trkpt lat="43.45595" lon="3.48995">
        <ele>93.099998474121</ele>
        <time>2020-01-15T08:52:48Z</time>
      </trkpt>
      <trkpt lat="43.45597" lon="3.48997">
        <ele>94.099998474121</ele>
        <time>2020-01-15T08:52:51Z</time>
      </trkpt>
      <trkpt lat="43.45609" lon="3.4901">
        <ele>96.099998474121</ele>
        <time>2020-01-15T08:53:06Z</time>
      </trkpt>
      <trkpt lat="43.45621" lon="3.49024">
        <ele>96.099998474121</ele>
        <time>2020-01-15T08:53:19Z</time>
      </trkpt>
      <trkpt lat="43.4563" lon="3.49039">
        <ele>95.099998474121</ele>
        <time>2020-01-15T08:53:32Z</time>
      </trkpt>
      <trkpt lat="43.4564" lon="3.49049">
        <ele>94.099998474121</ele>
        <time>2020-01-15T08:53:45Z</time>
      </trkpt>
      <trkpt lat="43.45642" lon="3.49052">
        <ele>94.099998474121</ele>
        <time>2020-01-15T08:53:47Z</time>
      </trkpt>
      <trkpt lat="43.45642" lon="3.49053">
        <ele>94.099998474121</ele>
        <time>2020-01-15T08:53:47Z</time>
      </trkpt>
      <trkpt lat="43.45643" lon="3.49055">
        <ele>95.099998474121</ele>
        <time>2020-01-15T08:53:49Z</time>
      </trkpt>
      <trkpt lat="43.45643" lon="3.49058">
        <ele>95.099998474121</ele>
        <time>2020-01-15T08:53:51Z</time>
      </trkpt>
      <trkpt lat="43.45643" lon="3.49061">
        <ele>95.099998474121</ele>
        <time>2020-01-15T08:53:52Z</time>
      </trkpt>
      <trkpt lat="43.45642" lon="3.49064">
        <ele>95.099998474121</ele>
        <time>2020-01-15T08:53:54Z</time>
      </trkpt>
      <trkpt lat="43.45637" lon="3.49083">
        <ele>95.099998474121</ele>
        <time>2020-01-15T08:54:09Z</time>
      </trkpt>
      <trkpt lat="43.45636" lon="3.49087">
        <ele>94.099998474121</ele>
        <time>2020-01-15T08:54:12Z</time>
      </trkpt>
      <trkpt lat="43.45634" lon="3.4909">
        <ele>94.099998474121</ele>
        <time>2020-01-15T08:54:15Z</time>
      </trkpt>
      <trkpt lat="43.45625" lon="3.49101">
        <ele>92.099998474121</ele>
        <time>2020-01-15T08:54:25Z</time>
      </trkpt>
      <trkpt lat="43.45611" lon="3.4911">
        <ele>92.099998474121</ele>
        <time>2020-01-15T08:54:39Z</time>
      </trkpt>
      <trkpt lat="43.45606" lon="3.49119">
        <ele>94.099998474121</ele>
        <time>2020-01-15T08:54:46Z</time>
      </trkpt>
      <trkpt lat="43.45597" lon="3.49132">
        <ele>92.099998474121</ele>
        <time>2020-01-15T08:54:58Z</time>
      </trkpt>
      <trkpt lat="43.45596" lon="3.49132">
        <ele>92.099998474121</ele>
        <time>2020-01-15T08:54:59Z</time>
      </trkpt>
      <trkpt lat="43.45595" lon="3.49134">
        <ele>93.099998474121</ele>
        <time>2020-01-15T08:55:01Z</time>
      </trkpt>
      <trkpt lat="43.45584" lon="3.49141">
        <ele>90.099998474121</ele>
        <time>2020-01-15T08:55:11Z</time>
      </trkpt>
      <trkpt lat="43.45578" lon="3.49147">
        <ele>90.099998474121</ele>
        <time>2020-01-15T08:55:18Z</time>
      </trkpt>
      <trkpt lat="43.45571" lon="3.49155">
        <ele>90.099998474121</ele>
        <time>2020-01-15T08:55:29Z</time>
      </trkpt>
      <trkpt lat="43.45568" lon="3.49159">
        <ele>89.099998474121</ele>
        <time>2020-01-15T08:55:32Z</time>
      </trkpt>
      <trkpt lat="43.45566" lon="3.49161">
        <ele>89.099998474121</ele>
        <time>2020-01-15T08:55:34Z</time>
      </trkpt>
      <trkpt lat="43.45565" lon="3.49162">
        <ele>89.099998474121</ele>
        <time>2020-01-15T08:55:35Z</time>
      </trkpt>
      <trkpt lat="43.45561" lon="3.49163">
        <ele>89.099998474121</ele>
        <time>2020-01-15T08:55:38Z</time>
      </trkpt>
      <trkpt lat="43.45559" lon="3.49164">
        <ele>89.099998474121</ele>
        <time>2020-01-15T08:55:40Z</time>
      </trkpt>
      <trkpt lat="43.45554" lon="3.49169">
        <ele>89.099998474121</ele>
        <time>2020-01-15T08:55:49Z</time>
      </trkpt>
      <trkpt lat="43.45556" lon="3.49171">
        <ele>88.099998474121</ele>
        <time>2020-01-15T08:56:10Z</time>
      </trkpt>
      <trkpt lat="43.45555" lon="3.4917">
        <ele>91.099998474121</ele>
        <time>2020-01-15T08:58:15Z</time>
      </trkpt>
      <trkpt lat="43.45553" lon="3.4917">
        <ele>90.099998474121</ele>
        <time>2020-01-15T08:58:24Z</time>
      </trkpt>
      <trkpt lat="43.45551" lon="3.49172">
        <ele>90.099998474121</ele>
        <time>2020-01-15T08:58:34Z</time>
      </trkpt>
      <trkpt lat="43.45549" lon="3.49174">
        <ele>89.099998474121</ele>
        <time>2020-01-15T08:58:36Z</time>
      </trkpt>
      <trkpt lat="43.45546" lon="3.49175">
        <ele>89.099998474121</ele>
        <time>2020-01-15T08:58:40Z</time>
      </trkpt>
      <trkpt lat="43.45532" lon="3.49184">
        <ele>87.099998474121</ele>
        <time>2020-01-15T08:58:53Z</time>
      </trkpt>
      <trkpt lat="43.45526" lon="3.49188">
        <ele>85.099998474121</ele>
        <time>2020-01-15T08:58:59Z</time>
      </trkpt>
      <trkpt lat="43.45513" lon="3.49197">
        <ele>85.099998474121</ele>
        <time>2020-01-15T08:59:16Z</time>
      </trkpt>
      <trkpt lat="43.45502" lon="3.49203">
        <ele>82.099998474121</ele>
        <time>2020-01-15T08:59:32Z</time>
      </trkpt>
      <trkpt lat="43.45488" lon="3.49212">
        <ele>80.099998474121</ele>
        <time>2020-01-15T08:59:49Z</time>
      </trkpt>
      <trkpt lat="43.45484" lon="3.49215">
        <ele>80.099998474121</ele>
        <time>2020-01-15T08:59:54Z</time>
      </trkpt>
      <trkpt lat="43.45478" lon="3.49217">
        <ele>80.099998474121</ele>
        <time>2020-01-15T09:00:01Z</time>
      </trkpt>
      <trkpt lat="43.4547" lon="3.49222">
        <ele>79.099998474121</ele>
        <time>2020-01-15T09:00:09Z</time>
      </trkpt>
      <trkpt lat="43.45468" lon="3.49224">
        <ele>78.099998474121</ele>
        <time>2020-01-15T09:00:12Z</time>
      </trkpt>
      <trkpt lat="43.45463" lon="3.49231">
        <ele>80.099998474121</ele>
        <time>2020-01-15T09:00:20Z</time>
      </trkpt>
      <trkpt lat="43.45461" lon="3.49232">
        <ele>80.099998474121</ele>
        <time>2020-01-15T09:00:23Z</time>
      </trkpt>
      <trkpt lat="43.45457" lon="3.49234">
        <ele>80.099998474121</ele>
        <time>2020-01-15T09:00:27Z</time>
      </trkpt>
      <trkpt lat="43.45453" lon="3.49236">
        <ele>80.099998474121</ele>
        <time>2020-01-15T09:00:31Z</time>
      </trkpt>
      <trkpt lat="43.45449" lon="3.49241">
        <ele>79.099998474121</ele>
        <time>2020-01-15T09:00:35Z</time>
      </trkpt>
      <trkpt lat="43.45445" lon="3.49245">
        <ele>79.099998474121</ele>
        <time>2020-01-15T09:00:40Z</time>
      </trkpt>
      <trkpt lat="43.45431" lon="3.49254">
        <ele>80.099998474121</ele>
        <time>2020-01-15T09:00:56Z</time>
      </trkpt>
      <trkpt lat="43.45426" lon="3.49259">
        <ele>83.099998474121</ele>
        <time>2020-01-15T09:01:02Z</time>
      </trkpt>
      <trkpt lat="43.45419" lon="3.49264">
        <ele>81.099998474121</ele>
        <time>2020-01-15T09:01:11Z</time>
      </trkpt>
      <trkpt lat="43.45416" lon="3.49266">
        <ele>81.099998474121</ele>
        <time>2020-01-15T09:01:14Z</time>
      </trkpt>
      <trkpt lat="43.45414" lon="3.49267">
        <ele>81.099998474121</ele>
        <time>2020-01-15T09:01:16Z</time>
      </trkpt>
      <trkpt lat="43.45402" lon="3.49278">
        <ele>83.099998474121</ele>
        <time>2020-01-15T09:01:31Z</time>
      </trkpt>
      <trkpt lat="43.45394" lon="3.49283">
        <ele>83.099998474121</ele>
        <time>2020-01-15T09:01:37Z</time>
      </trkpt>
      <trkpt lat="43.45394" lon="3.49283">
        <ele>83.099998474121</ele>
        <time>2020-01-15T09:01:37Z</time>
      </trkpt>
      <trkpt lat="43.45391" lon="3.49286">
        <ele>83.099998474121</ele>
        <time>2020-01-15T09:01:40Z</time>
      </trkpt>
      <trkpt lat="43.45388" lon="3.4929">
        <ele>83.099998474121</ele>
        <time>2020-01-15T09:01:47Z</time>
      </trkpt>
      <trkpt lat="43.45373" lon="3.49302">
        <ele>81.099998474121</ele>
        <time>2020-01-15T09:02:05Z</time>
      </trkpt>
      <trkpt lat="43.45371" lon="3.49305">
        <ele>81.099998474121</ele>
        <time>2020-01-15T09:02:09Z</time>
      </trkpt>
      <trkpt lat="43.45369" lon="3.49306">
        <ele>81.099998474121</ele>
        <time>2020-01-15T09:02:11Z</time>
      </trkpt>
      <trkpt lat="43.45364" lon="3.49309">
        <ele>81.099998474121</ele>
        <time>2020-01-15T09:02:17Z</time>
      </trkpt>
      <trkpt lat="43.45362" lon="3.49311">
        <ele>81.099998474121</ele>
        <time>2020-01-15T09:02:18Z</time>
      </trkpt>
      <trkpt lat="43.4536" lon="3.49313">
        <ele>82.099998474121</ele>
        <time>2020-01-15T09:02:21Z</time>
      </trkpt>
      <trkpt lat="43.45357" lon="3.49315">
        <ele>81.099998474121</ele>
        <time>2020-01-15T09:02:26Z</time>
      </trkpt>
      <trkpt lat="43.4535" lon="3.49323">
        <ele>84.099998474121</ele>
        <time>2020-01-15T09:02:36Z</time>
      </trkpt>
      <trkpt lat="43.4534" lon="3.49331">
        <ele>84.099998474121</ele>
        <time>2020-01-15T09:02:50Z</time>
      </trkpt>
      <trkpt lat="43.45337" lon="3.49333">
        <ele>85.099998474121</ele>
        <time>2020-01-15T09:02:55Z</time>
      </trkpt>
      <trkpt lat="43.45333" lon="3.49338">
        <ele>85.099998474121</ele>
        <time>2020-01-15T09:03:21Z</time>
      </trkpt>
      <trkpt lat="43.45331" lon="3.49343">
        <ele>85.099998474121</ele>
        <time>2020-01-15T09:03:49Z</time>
      </trkpt>
      <trkpt lat="43.45331" lon="3.49349">
        <ele>85.099998474121</ele>
        <time>2020-01-15T09:04:02Z</time>
      </trkpt>
      <trkpt lat="43.4533" lon="3.49352">
        <ele>85.099998474121</ele>
        <time>2020-01-15T09:04:05Z</time>
      </trkpt>
      <trkpt lat="43.45327" lon="3.49359">
        <ele>88.099998474121</ele>
        <time>2020-01-15T09:04:12Z</time>
      </trkpt>
      <trkpt lat="43.45321" lon="3.49375">
        <ele>90.099998474121</ele>
        <time>2020-01-15T09:04:27Z</time>
      </trkpt>
      <trkpt lat="43.45312" lon="3.49392">
        <ele>91.099998474121</ele>
        <time>2020-01-15T09:04:42Z</time>
      </trkpt>
      <trkpt lat="43.453" lon="3.49413">
        <ele>88.099998474121</ele>
        <time>2020-01-15T09:05:02Z</time>
      </trkpt>
      <trkpt lat="43.45296" lon="3.49421">
        <ele>88.099998474121</ele>
        <time>2020-01-15T09:05:08Z</time>
      </trkpt>
      <trkpt lat="43.45288" lon="3.4944">
        <ele>88.099998474121</ele>
        <time>2020-01-15T09:05:23Z</time>
      </trkpt>
      <trkpt lat="43.4528" lon="3.49458">
        <ele>88.099998474121</ele>
        <time>2020-01-15T09:05:39Z</time>
      </trkpt>
      <trkpt lat="43.45277" lon="3.49466">
        <ele>88.099998474121</ele>
        <time>2020-01-15T09:05:47Z</time>
      </trkpt>
      <trkpt lat="43.45266" lon="3.49482">
        <ele>89.099998474121</ele>
        <time>2020-01-15T09:06:01Z</time>
      </trkpt>
      <trkpt lat="43.45256" lon="3.49498">
        <ele>91.099998474121</ele>
        <time>2020-01-15T09:06:14Z</time>
      </trkpt>
      <trkpt lat="43.45246" lon="3.49514">
        <ele>89.099998474121</ele>
        <time>2020-01-15T09:06:24Z</time>
      </trkpt>
      <trkpt lat="43.45236" lon="3.4953">
        <ele>87.099998474121</ele>
        <time>2020-01-15T09:06:39Z</time>
      </trkpt>
      <trkpt lat="43.45229" lon="3.49539">
        <ele>87.099998474121</ele>
        <time>2020-01-15T09:06:46Z</time>
      </trkpt>
      <trkpt lat="43.45228" lon="3.49543">
        <ele>87.099998474121</ele>
        <time>2020-01-15T09:06:50Z</time>
      </trkpt>
      <trkpt lat="43.45218" lon="3.49559">
        <ele>87.099998474121</ele>
        <time>2020-01-15T09:07:06Z</time>
      </trkpt>
      <trkpt lat="43.45212" lon="3.49576">
        <ele>89.099998474121</ele>
        <time>2020-01-15T09:07:20Z</time>
      </trkpt>
      <trkpt lat="43.45201" lon="3.49596">
        <ele>85.099998474121</ele>
        <time>2020-01-15T09:07:37Z</time>
      </trkpt>
      <trkpt lat="43.45192" lon="3.49614">
        <ele>87.099998474121</ele>
        <time>2020-01-15T09:07:50Z</time>
      </trkpt>
      <trkpt lat="43.45182" lon="3.49631">
        <ele>87.099998474121</ele>
        <time>2020-01-15T09:08:06Z</time>
      </trkpt>
      <trkpt lat="43.45172" lon="3.49652">
        <ele>88.099998474121</ele>
        <time>2020-01-15T09:08:23Z</time>
      </trkpt>
      <trkpt lat="43.45164" lon="3.49667">
        <ele>87.099998474121</ele>
        <time>2020-01-15T09:08:33Z</time>
      </trkpt>
      <trkpt lat="43.45162" lon="3.4967">
        <ele>86.099998474121</ele>
        <time>2020-01-15T09:08:35Z</time>
      </trkpt>
      <trkpt lat="43.45156" lon="3.49685">
        <ele>89.099998474121</ele>
        <time>2020-01-15T09:08:51Z</time>
      </trkpt>
      <trkpt lat="43.45148" lon="3.49702">
        <ele>89.099998474121</ele>
        <time>2020-01-15T09:09:04Z</time>
      </trkpt>
      <trkpt lat="43.45143" lon="3.49711">
        <ele>90.099998474121</ele>
        <time>2020-01-15T09:09:12Z</time>
      </trkpt>
      <trkpt lat="43.45139" lon="3.49714">
        <ele>89.099998474121</ele>
        <time>2020-01-15T09:09:17Z</time>
      </trkpt>
      <trkpt lat="43.45128" lon="3.49729">
        <ele>89.099998474121</ele>
        <time>2020-01-15T09:09:33Z</time>
      </trkpt>
      <trkpt lat="43.45113" lon="3.49744">
        <ele>87.099998474121</ele>
        <time>2020-01-15T09:09:50Z</time>
      </trkpt>
      <trkpt lat="43.45101" lon="3.49756">
        <ele>87.099998474121</ele>
        <time>2020-01-15T09:10:05Z</time>
      </trkpt>
      <trkpt lat="43.45098" lon="3.49759">
        <ele>87.099998474121</ele>
        <time>2020-01-15T09:10:11Z</time>
      </trkpt>
      <trkpt lat="43.45096" lon="3.49762">
        <ele>87.099998474121</ele>
        <time>2020-01-15T09:10:16Z</time>
      </trkpt>
      <trkpt lat="43.45095" lon="3.49763">
        <ele>87.099998474121</ele>
        <time>2020-01-15T09:10:20Z</time>
      </trkpt>
      <trkpt lat="43.45093" lon="3.49762">
        <ele>89.099998474121</ele>
        <time>2020-01-15T09:10:53Z</time>
      </trkpt>
      <trkpt lat="43.45095" lon="3.49763">
        <ele>89.099998474121</ele>
        <time>2020-01-15T09:12:50Z</time>
      </trkpt>
      <trkpt lat="43.45094" lon="3.49767">
        <ele>91.099998474121</ele>
        <time>2020-01-15T09:13:09Z</time>
      </trkpt>
      <trkpt lat="43.45091" lon="3.49772">
        <ele>90.099998474121</ele>
        <time>2020-01-15T09:13:16Z</time>
      </trkpt>
      <trkpt lat="43.45089" lon="3.49775">
        <ele>89.099998474121</ele>
        <time>2020-01-15T09:13:18Z</time>
      </trkpt>
      <trkpt lat="43.4508" lon="3.49781">
        <ele>86.099998474121</ele>
        <time>2020-01-15T09:13:29Z</time>
      </trkpt>
      <trkpt lat="43.45074" lon="3.49787">
        <ele>84.099998474121</ele>
        <time>2020-01-15T09:13:37Z</time>
      </trkpt>
      <trkpt lat="43.4507" lon="3.49791">
        <ele>84.099998474121</ele>
        <time>2020-01-15T09:13:41Z</time>
      </trkpt>
      <trkpt lat="43.45066" lon="3.49799">
        <ele>82.099998474121</ele>
        <time>2020-01-15T09:13:49Z</time>
      </trkpt>
      <trkpt lat="43.45063" lon="3.49805">
        <ele>82.099998474121</ele>
        <time>2020-01-15T09:13:55Z</time>
      </trkpt>
      <trkpt lat="43.4506" lon="3.49811">
        <ele>81.099998474121</ele>
        <time>2020-01-15T09:14:02Z</time>
      </trkpt>
      <trkpt lat="43.45058" lon="3.49814">
        <ele>82.099998474121</ele>
        <time>2020-01-15T09:14:05Z</time>
      </trkpt>
      <trkpt lat="43.45052" lon="3.49822">
        <ele>82.099998474121</ele>
        <time>2020-01-15T09:14:16Z</time>
      </trkpt>
      <trkpt lat="43.45047" lon="3.49829">
        <ele>85.099998474121</ele>
        <time>2020-01-15T09:14:25Z</time>
      </trkpt>
      <trkpt lat="43.45043" lon="3.49836">
        <ele>85.099998474121</ele>
        <time>2020-01-15T09:14:33Z</time>
      </trkpt>
      <trkpt lat="43.45041" lon="3.49839">
        <ele>85.099998474121</ele>
        <time>2020-01-15T09:14:36Z</time>
      </trkpt>
      <trkpt lat="43.45038" lon="3.49855">
        <ele>85.099998474121</ele>
        <time>2020-01-15T09:14:50Z</time>
      </trkpt>
      <trkpt lat="43.45036" lon="3.49862">
        <ele>84.099998474121</ele>
        <time>2020-01-15T09:14:58Z</time>
      </trkpt>
      <trkpt lat="43.45034" lon="3.49864">
        <ele>85.099998474121</ele>
        <time>2020-01-15T09:15:00Z</time>
      </trkpt>
      <trkpt lat="43.45023" lon="3.49877">
        <ele>87.099998474121</ele>
        <time>2020-01-15T09:15:12Z</time>
      </trkpt>
      <trkpt lat="43.45022" lon="3.49879">
        <ele>86.099998474121</ele>
        <time>2020-01-15T09:15:14Z</time>
      </trkpt>
      <trkpt lat="43.45013" lon="3.49896">
        <ele>87.099998474121</ele>
        <time>2020-01-15T09:15:27Z</time>
      </trkpt>
      <trkpt lat="43.45011" lon="3.49902">
        <ele>86.099998474121</ele>
        <time>2020-01-15T09:15:32Z</time>
      </trkpt>
      <trkpt lat="43.4501" lon="3.49905">
        <ele>87.099998474121</ele>
        <time>2020-01-15T09:15:34Z</time>
      </trkpt>
      <trkpt lat="43.45009" lon="3.49913">
        <ele>85.099998474121</ele>
        <time>2020-01-15T09:15:39Z</time>
      </trkpt>
      <trkpt lat="43.45009" lon="3.49919">
        <ele>85.099998474121</ele>
        <time>2020-01-15T09:15:43Z</time>
      </trkpt>
      <trkpt lat="43.45002" lon="3.49937">
        <ele>86.099998474121</ele>
        <time>2020-01-15T09:15:55Z</time>
      </trkpt>
      <trkpt lat="43.44995" lon="3.49955">
        <ele>86.099998474121</ele>
        <time>2020-01-15T09:16:09Z</time>
      </trkpt>
      <trkpt lat="43.44991" lon="3.49975">
        <ele>85.099998474121</ele>
        <time>2020-01-15T09:16:25Z</time>
      </trkpt>
      <trkpt lat="43.44987" lon="3.49988">
        <ele>88.099998474121</ele>
        <time>2020-01-15T09:16:34Z</time>
      </trkpt>
      <trkpt lat="43.44983" lon="3.50014">
        <ele>88.099998474121</ele>
        <time>2020-01-15T09:16:52Z</time>
      </trkpt>
      <trkpt lat="43.44981" lon="3.50021">
        <ele>91.099998474121</ele>
        <time>2020-01-15T09:16:57Z</time>
      </trkpt>
      <trkpt lat="43.44979" lon="3.50035">
        <ele>90.099998474121</ele>
        <time>2020-01-15T09:17:06Z</time>
      </trkpt>
      <trkpt lat="43.44973" lon="3.50046">
        <ele>88.099998474121</ele>
        <time>2020-01-15T09:17:17Z</time>
      </trkpt>
      <trkpt lat="43.44967" lon="3.50056">
        <ele>88.099998474121</ele>
        <time>2020-01-15T09:17:26Z</time>
      </trkpt>
      <trkpt lat="43.44957" lon="3.50082">
        <ele>91.099998474121</ele>
        <time>2020-01-15T09:17:48Z</time>
      </trkpt>
      <trkpt lat="43.44952" lon="3.50094">
        <ele>93.099998474121</ele>
        <time>2020-01-15T09:17:56Z</time>
      </trkpt>
      <trkpt lat="43.44949" lon="3.50102">
        <ele>93.099998474121</ele>
        <time>2020-01-15T09:18:03Z</time>
      </trkpt>
      <trkpt lat="43.44948" lon="3.50105">
        <ele>92.099998474121</ele>
        <time>2020-01-15T09:18:06Z</time>
      </trkpt>
      <trkpt lat="43.44944" lon="3.50118">
        <ele>89.099998474121</ele>
        <time>2020-01-15T09:18:15Z</time>
      </trkpt>
      <trkpt lat="43.44943" lon="3.50127">
        <ele>87.099998474121</ele>
        <time>2020-01-15T09:18:22Z</time>
      </trkpt>
      <trkpt lat="43.44944" lon="3.50147">
        <ele>85.099998474121</ele>
        <time>2020-01-15T09:18:36Z</time>
      </trkpt>
      <trkpt lat="43.44945" lon="3.50153">
        <ele>85.099998474121</ele>
        <time>2020-01-15T09:18:41Z</time>
      </trkpt>
      <trkpt lat="43.44949" lon="3.50168">
        <ele>84.099998474121</ele>
        <time>2020-01-15T09:18:53Z</time>
      </trkpt>
      <trkpt lat="43.4495" lon="3.50179">
        <ele>84.099998474121</ele>
        <time>2020-01-15T09:19:03Z</time>
      </trkpt>
      <trkpt lat="43.4495" lon="3.50189">
        <ele>87.099998474121</ele>
        <time>2020-01-15T09:19:10Z</time>
      </trkpt>
      <trkpt lat="43.44948" lon="3.50205">
        <ele>88.099998474121</ele>
        <time>2020-01-15T09:19:21Z</time>
      </trkpt>
      <trkpt lat="43.44943" lon="3.50221">
        <ele>87.099998474121</ele>
        <time>2020-01-15T09:19:32Z</time>
      </trkpt>
      <trkpt lat="43.44942" lon="3.50223">
        <ele>87.099998474121</ele>
        <time>2020-01-15T09:19:34Z</time>
      </trkpt>
      <trkpt lat="43.44935" lon="3.5023">
        <ele>86.099998474121</ele>
        <time>2020-01-15T09:19:42Z</time>
      </trkpt>
      <trkpt lat="43.4493" lon="3.50243">
        <ele>87.099998474121</ele>
        <time>2020-01-15T09:19:52Z</time>
      </trkpt>
      <trkpt lat="43.44929" lon="3.50248">
        <ele>87.099998474121</ele>
        <time>2020-01-15T09:19:56Z</time>
      </trkpt>
      <trkpt lat="43.44928" lon="3.50253">
        <ele>88.099998474121</ele>
        <time>2020-01-15T09:19:58Z</time>
      </trkpt>
      <trkpt lat="43.44927" lon="3.50267">
        <ele>88.099998474121</ele>
        <time>2020-01-15T09:20:07Z</time>
      </trkpt>
      <trkpt lat="43.44927" lon="3.50276">
        <ele>88.099998474121</ele>
        <time>2020-01-15T09:20:13Z</time>
      </trkpt>
      <trkpt lat="43.44926" lon="3.50279">
        <ele>88.099998474121</ele>
        <time>2020-01-15T09:20:16Z</time>
      </trkpt>
      <trkpt lat="43.44921" lon="3.50292">
        <ele>90.099998474121</ele>
        <time>2020-01-15T09:20:29Z</time>
      </trkpt>
      <trkpt lat="43.44918" lon="3.503">
        <ele>91.099998474121</ele>
        <time>2020-01-15T09:20:37Z</time>
      </trkpt>
      <trkpt lat="43.44912" lon="3.50315">
        <ele>92.099998474121</ele>
        <time>2020-01-15T09:20:48Z</time>
      </trkpt>
      <trkpt lat="43.44911" lon="3.50321">
        <ele>94.099998474121</ele>
        <time>2020-01-15T09:20:52Z</time>
      </trkpt>
      <trkpt lat="43.44903" lon="3.50339">
        <ele>94.099998474121</ele>
        <time>2020-01-15T09:21:06Z</time>
      </trkpt>
      <trkpt lat="43.44902" lon="3.50344">
        <ele>94.099998474121</ele>
        <time>2020-01-15T09:21:10Z</time>
      </trkpt>
      <trkpt lat="43.44893" lon="3.50362">
        <ele>95.099998474121</ele>
        <time>2020-01-15T09:21:25Z</time>
      </trkpt>
      <trkpt lat="43.4489" lon="3.5037">
        <ele>94.099998474121</ele>
        <time>2020-01-15T09:21:32Z</time>
      </trkpt>
      <trkpt lat="43.44887" lon="3.5038">
        <ele>94.099998474121</ele>
        <time>2020-01-15T09:21:38Z</time>
      </trkpt>
      <trkpt lat="43.44884" lon="3.5039">
        <ele>94.099998474121</ele>
        <time>2020-01-15T09:21:46Z</time>
      </trkpt>
      <trkpt lat="43.44882" lon="3.50398">
        <ele>91.099998474121</ele>
        <time>2020-01-15T09:21:51Z</time>
      </trkpt>
      <trkpt lat="43.44878" lon="3.50411">
        <ele>92.099998474121</ele>
        <time>2020-01-15T09:21:59Z</time>
      </trkpt>
      <trkpt lat="43.44872" lon="3.50423">
        <ele>90.099998474121</ele>
        <time>2020-01-15T09:22:10Z</time>
      </trkpt>
      <trkpt lat="43.44863" lon="3.50445">
        <ele>93.099998474121</ele>
        <time>2020-01-15T09:22:28Z</time>
      </trkpt>
      <trkpt lat="43.44857" lon="3.50463">
        <ele>91.099998474121</ele>
        <time>2020-01-15T09:22:43Z</time>
      </trkpt>
      <trkpt lat="43.44854" lon="3.5047">
        <ele>91.099998474121</ele>
        <time>2020-01-15T09:22:49Z</time>
      </trkpt>
      <trkpt lat="43.44852" lon="3.50472">
        <ele>91.099998474121</ele>
        <time>2020-01-15T09:22:52Z</time>
      </trkpt>
      <trkpt lat="43.4485" lon="3.50472">
        <ele>91.099998474121</ele>
        <time>2020-01-15T09:22:55Z</time>
      </trkpt>
      <trkpt lat="43.44847" lon="3.50471">
        <ele>91.099998474121</ele>
        <time>2020-01-15T09:23:00Z</time>
      </trkpt>
      <trkpt lat="43.44844" lon="3.50472">
        <ele>91.099998474121</ele>
        <time>2020-01-15T09:23:06Z</time>
      </trkpt>
      <trkpt lat="43.44842" lon="3.50472">
        <ele>91.099998474121</ele>
        <time>2020-01-15T09:23:09Z</time>
      </trkpt>
      <trkpt lat="43.44841" lon="3.50472">
        <ele>91.099998474121</ele>
        <time>2020-01-15T09:23:10Z</time>
      </trkpt>
      <trkpt lat="43.44835" lon="3.50472">
        <ele>90.099998474121</ele>
        <time>2020-01-15T09:23:16Z</time>
      </trkpt>
      <trkpt lat="43.44828" lon="3.5047">
        <ele>91.099998474121</ele>
        <time>2020-01-15T09:23:25Z</time>
      </trkpt>
      <trkpt lat="43.44816" lon="3.50471">
        <ele>88.099998474121</ele>
        <time>2020-01-15T09:23:38Z</time>
      </trkpt>
      <trkpt lat="43.44808" lon="3.50472">
        <ele>86.099998474121</ele>
        <time>2020-01-15T09:23:47Z</time>
      </trkpt>
      <trkpt lat="43.44801" lon="3.50471">
        <ele>86.099998474121</ele>
        <time>2020-01-15T09:23:56Z</time>
      </trkpt>
      <trkpt lat="43.44799" lon="3.50469">
        <ele>85.099998474121</ele>
        <time>2020-01-15T09:24:00Z</time>
      </trkpt>
      <trkpt lat="43.44798" lon="3.50467">
        <ele>85.099998474121</ele>
        <time>2020-01-15T09:24:02Z</time>
      </trkpt>
      <trkpt lat="43.44798" lon="3.50463">
        <ele>86.099998474121</ele>
        <time>2020-01-15T09:24:09Z</time>
      </trkpt>
      <trkpt lat="43.44797" lon="3.50459">
        <ele>85.099998474121</ele>
        <time>2020-01-15T09:24:20Z</time>
      </trkpt>
      <trkpt lat="43.44796" lon="3.50457">
        <ele>85.099998474121</ele>
        <time>2020-01-15T09:24:36Z</time>
      </trkpt>
      <trkpt lat="43.44795" lon="3.50453">
        <ele>84.099998474121</ele>
        <time>2020-01-15T09:24:39Z</time>
      </trkpt>
      <trkpt lat="43.44794" lon="3.50453">
        <ele>87.099998474121</ele>
        <time>2020-01-15T09:24:54Z</time>
      </trkpt>
      <trkpt lat="43.44792" lon="3.50455">
        <ele>85.099998474121</ele>
        <time>2020-01-15T09:30:12Z</time>
      </trkpt>
      <trkpt lat="43.4479" lon="3.50458">
        <ele>88.099998474121</ele>
        <time>2020-01-15T09:30:19Z</time>
      </trkpt>
      <trkpt lat="43.44785" lon="3.50459">
        <ele>86.099998474121</ele>
        <time>2020-01-15T09:30:31Z</time>
      </trkpt>
      <trkpt lat="43.44778" lon="3.50462">
        <ele>87.099998474121</ele>
        <time>2020-01-15T09:30:39Z</time>
      </trkpt>
      <trkpt lat="43.44775" lon="3.50462">
        <ele>88.099998474121</ele>
        <time>2020-01-15T09:30:42Z</time>
      </trkpt>
      <trkpt lat="43.44764" lon="3.50468">
        <ele>88.099998474121</ele>
        <time>2020-01-15T09:30:53Z</time>
      </trkpt>
      <trkpt lat="43.4476" lon="3.50472">
        <ele>87.099998474121</ele>
        <time>2020-01-15T09:30:59Z</time>
      </trkpt>
      <trkpt lat="43.44749" lon="3.50481">
        <ele>88.099998474121</ele>
        <time>2020-01-15T09:31:14Z</time>
      </trkpt>
      <trkpt lat="43.44746" lon="3.50483">
        <ele>90.099998474121</ele>
        <time>2020-01-15T09:31:18Z</time>
      </trkpt>
      <trkpt lat="43.44737" lon="3.50489">
        <ele>87.099998474121</ele>
        <time>2020-01-15T09:31:30Z</time>
      </trkpt>
      <trkpt lat="43.44722" lon="3.50494">
        <ele>87.099998474121</ele>
        <time>2020-01-15T09:31:46Z</time>
      </trkpt>
      <trkpt lat="43.4472" lon="3.50494">
        <ele>87.099998474121</ele>
        <time>2020-01-15T09:31:48Z</time>
      </trkpt>
      <trkpt lat="43.44707" lon="3.5049">
        <ele>87.099998474121</ele>
        <time>2020-01-15T09:32:02Z</time>
      </trkpt>
      <trkpt lat="43.44688" lon="3.50486">
        <ele>83.099998474121</ele>
        <time>2020-01-15T09:32:23Z</time>
      </trkpt>
      <trkpt lat="43.4468" lon="3.50483">
        <ele>83.099998474121</ele>
        <time>2020-01-15T09:32:30Z</time>
      </trkpt>
      <trkpt lat="43.44678" lon="3.50482">
        <ele>83.099998474121</ele>
        <time>2020-01-15T09:32:32Z</time>
      </trkpt>
      <trkpt lat="43.44669" lon="3.50475">
        <ele>84.099998474121</ele>
        <time>2020-01-15T09:32:42Z</time>
      </trkpt>
      <trkpt lat="43.44651" lon="3.50466">
        <ele>82.099998474121</ele>
        <time>2020-01-15T09:33:00Z</time>
      </trkpt>
      <trkpt lat="43.44641" lon="3.50459">
        <ele>79.099998474121</ele>
        <time>2020-01-15T09:33:10Z</time>
      </trkpt>
      <trkpt lat="43.44632" lon="3.50454">
        <ele>81.099998474121</ele>
        <time>2020-01-15T09:33:16Z</time>
      </trkpt>
      <trkpt lat="43.44617" lon="3.50448">
        <ele>83.099998474121</ele>
        <time>2020-01-15T09:33:32Z</time>
      </trkpt>
      <trkpt lat="43.44602" lon="3.50443">
        <ele>82.099998474121</ele>
        <time>2020-01-15T09:33:45Z</time>
      </trkpt>
      <trkpt lat="43.44586" lon="3.50438">
        <ele>81.099998474121</ele>
        <time>2020-01-15T09:33:59Z</time>
      </trkpt>
      <trkpt lat="43.44572" lon="3.50434">
        <ele>84.099998474121</ele>
        <time>2020-01-15T09:34:11Z</time>
      </trkpt>
      <trkpt lat="43.44554" lon="3.50428">
        <ele>83.099998474121</ele>
        <time>2020-01-15T09:34:29Z</time>
      </trkpt>
      <trkpt lat="43.44539" lon="3.50423">
        <ele>83.099998474121</ele>
        <time>2020-01-15T09:34:42Z</time>
      </trkpt>
      <trkpt lat="43.44527" lon="3.50419">
        <ele>81.099998474121</ele>
        <time>2020-01-15T09:34:53Z</time>
      </trkpt>
      <trkpt lat="43.44513" lon="3.50413">
        <ele>81.099998474121</ele>
        <time>2020-01-15T09:35:06Z</time>
      </trkpt>
      <trkpt lat="43.44505" lon="3.50408">
        <ele>81.099998474121</ele>
        <time>2020-01-15T09:35:15Z</time>
      </trkpt>
      <trkpt lat="43.44498" lon="3.50401">
        <ele>81.099998474121</ele>
        <time>2020-01-15T09:35:24Z</time>
      </trkpt>
      <trkpt lat="43.44484" lon="3.50392">
        <ele>81.099998474121</ele>
        <time>2020-01-15T09:35:38Z</time>
      </trkpt>
      <trkpt lat="43.44482" lon="3.50391">
        <ele>80.099998474121</ele>
        <time>2020-01-15T09:35:39Z</time>
      </trkpt>
      <trkpt lat="43.44481" lon="3.50391">
        <ele>80.099998474121</ele>
        <time>2020-01-15T09:35:40Z</time>
      </trkpt>
      <trkpt lat="43.44479" lon="3.50391">
        <ele>80.099998474121</ele>
        <time>2020-01-15T09:35:41Z</time>
      </trkpt>
      <trkpt lat="43.44477" lon="3.50391">
        <ele>80.099998474121</ele>
        <time>2020-01-15T09:35:42Z</time>
      </trkpt>
      <trkpt lat="43.44475" lon="3.50391">
        <ele>81.099998474121</ele>
        <time>2020-01-15T09:35:43Z</time>
      </trkpt>
      <trkpt lat="43.44463" lon="3.50396">
        <ele>81.099998474121</ele>
        <time>2020-01-15T09:35:53Z</time>
      </trkpt>
      <trkpt lat="43.44461" lon="3.50396">
        <ele>81.099998474121</ele>
        <time>2020-01-15T09:35:55Z</time>
      </trkpt>
      <trkpt lat="43.44461" lon="3.50396">
        <ele>81.099998474121</ele>
        <time>2020-01-15T09:35:56Z</time>
      </trkpt>
      <trkpt lat="43.44455" lon="3.50393">
        <ele>82.099998474121</ele>
        <time>2020-01-15T09:36:02Z</time>
      </trkpt>
      <trkpt lat="43.44454" lon="3.50392">
        <ele>81.099998474121</ele>
        <time>2020-01-15T09:36:03Z</time>
      </trkpt>
      <trkpt lat="43.44453" lon="3.50391">
        <ele>81.099998474121</ele>
        <time>2020-01-15T09:36:03Z</time>
      </trkpt>
      <trkpt lat="43.44449" lon="3.50388">
        <ele>81.099998474121</ele>
        <time>2020-01-15T09:36:07Z</time>
      </trkpt>
      <trkpt lat="43.44446" lon="3.50388">
        <ele>81.099998474121</ele>
        <time>2020-01-15T09:36:09Z</time>
      </trkpt>
      <trkpt lat="43.4443" lon="3.50386">
        <ele>81.099998474121</ele>
        <time>2020-01-15T09:36:27Z</time>
      </trkpt>
      <trkpt lat="43.44414" lon="3.50388">
        <ele>79.099998474121</ele>
        <time>2020-01-15T09:36:41Z</time>
      </trkpt>
      <trkpt lat="43.44398" lon="3.50387">
        <ele>77.099998474121</ele>
        <time>2020-01-15T09:36:52Z</time>
      </trkpt>
      <trkpt lat="43.44389" lon="3.50391">
        <ele>77.099998474121</ele>
        <time>2020-01-15T09:37:03Z</time>
      </trkpt>
      <trkpt lat="43.44388" lon="3.50391">
        <ele>77.099998474121</ele>
        <time>2020-01-15T09:37:04Z</time>
      </trkpt>
      <trkpt lat="43.44372" lon="3.50388">
        <ele>77.099998474121</ele>
        <time>2020-01-15T09:37:14Z</time>
      </trkpt>
      <trkpt lat="43.44359" lon="3.50388">
        <ele>78.099998474121</ele>
        <time>2020-01-15T09:37:25Z</time>
      </trkpt>
      <trkpt lat="43.44355" lon="3.50387">
        <ele>77.099998474121</ele>
        <time>2020-01-15T09:37:28Z</time>
      </trkpt>
      <trkpt lat="43.44354" lon="3.50384">
        <ele>78.099998474121</ele>
        <time>2020-01-15T09:37:30Z</time>
      </trkpt>
      <trkpt lat="43.44353" lon="3.50384">
        <ele>78.099998474121</ele>
        <time>2020-01-15T09:37:31Z</time>
      </trkpt>
      <trkpt lat="43.44351" lon="3.50383">
        <ele>77.099998474121</ele>
        <time>2020-01-15T09:37:33Z</time>
      </trkpt>
      <trkpt lat="43.4435" lon="3.50382">
        <ele>77.099998474121</ele>
        <time>2020-01-15T09:37:35Z</time>
      </trkpt>
      <trkpt lat="43.44346" lon="3.50383">
        <ele>77.099998474121</ele>
        <time>2020-01-15T09:37:39Z</time>
      </trkpt>
      <trkpt lat="43.44331" lon="3.50379">
        <ele>77.099998474121</ele>
        <time>2020-01-15T09:37:57Z</time>
      </trkpt>
      <trkpt lat="43.44329" lon="3.50378">
        <ele>77.099998474121</ele>
        <time>2020-01-15T09:37:59Z</time>
      </trkpt>
      <trkpt lat="43.44322" lon="3.50374">
        <ele>77.099998474121</ele>
        <time>2020-01-15T09:38:06Z</time>
      </trkpt>
      <trkpt lat="43.44318" lon="3.50374">
        <ele>75.099998474121</ele>
        <time>2020-01-15T09:38:12Z</time>
      </trkpt>
      <trkpt lat="43.44315" lon="3.50373">
        <ele>75.099998474121</ele>
        <time>2020-01-15T09:38:14Z</time>
      </trkpt>
      <trkpt lat="43.4431" lon="3.50371">
        <ele>75.099998474121</ele>
        <time>2020-01-15T09:38:21Z</time>
      </trkpt>
      <trkpt lat="43.44309" lon="3.5037">
        <ele>75.099998474121</ele>
        <time>2020-01-15T09:38:22Z</time>
      </trkpt>
      <trkpt lat="43.44296" lon="3.50366">
        <ele>74.099998474121</ele>
        <time>2020-01-15T09:38:30Z</time>
      </trkpt>
      <trkpt lat="43.44292" lon="3.50364">
        <ele>74.099998474121</ele>
        <time>2020-01-15T09:38:34Z</time>
      </trkpt>
      <trkpt lat="43.4429" lon="3.50363">
        <ele>74.099998474121</ele>
        <time>2020-01-15T09:38:38Z</time>
      </trkpt>
      <trkpt lat="43.44287" lon="3.50363">
        <ele>74.099998474121</ele>
        <time>2020-01-15T09:38:42Z</time>
      </trkpt>
      <trkpt lat="43.44286" lon="3.50362">
        <ele>73.099998474121</ele>
        <time>2020-01-15T09:38:44Z</time>
      </trkpt>
      <trkpt lat="43.44271" lon="3.50354">
        <ele>71.099998474121</ele>
        <time>2020-01-15T09:38:58Z</time>
      </trkpt>
      <trkpt lat="43.44257" lon="3.50348">
        <ele>69.099998474121</ele>
        <time>2020-01-15T09:39:12Z</time>
      </trkpt>
      <trkpt lat="43.44242" lon="3.50337">
        <ele>69.099998474121</ele>
        <time>2020-01-15T09:39:28Z</time>
      </trkpt>
      <trkpt lat="43.44233" lon="3.50332">
        <ele>70.099998474121</ele>
        <time>2020-01-15T09:39:36Z</time>
      </trkpt>
      <trkpt lat="43.44221" lon="3.5033">
        <ele>69.099998474121</ele>
        <time>2020-01-15T09:39:44Z</time>
      </trkpt>
      <trkpt lat="43.44217" lon="3.50329">
        <ele>69.099998474121</ele>
        <time>2020-01-15T09:39:48Z</time>
      </trkpt>
      <trkpt lat="43.44214" lon="3.5033">
        <ele>68.099998474121</ele>
        <time>2020-01-15T09:39:51Z</time>
      </trkpt>
      <trkpt lat="43.44209" lon="3.50333">
        <ele>69.099998474121</ele>
        <time>2020-01-15T09:39:57Z</time>
      </trkpt>
      <trkpt lat="43.44194" lon="3.50338">
        <ele>68.099998474121</ele>
        <time>2020-01-15T09:40:12Z</time>
      </trkpt>
      <trkpt lat="43.44192" lon="3.50339">
        <ele>67.099998474121</ele>
        <time>2020-01-15T09:40:15Z</time>
      </trkpt>
      <trkpt lat="43.44185" lon="3.50346">
        <ele>65.099998474121</ele>
        <time>2020-01-15T09:40:23Z</time>
      </trkpt>
      <trkpt lat="43.44183" lon="3.50348">
        <ele>66.099998474121</ele>
        <time>2020-01-15T09:40:26Z</time>
      </trkpt>
      <trkpt lat="43.4418" lon="3.5035">
        <ele>69.099998474121</ele>
        <time>2020-01-15T09:40:30Z</time>
      </trkpt>
      <trkpt lat="43.44169" lon="3.50358">
        <ele>70.099998474121</ele>
        <time>2020-01-15T09:40:41Z</time>
      </trkpt>
      <trkpt lat="43.44162" lon="3.50367">
        <ele>70.099998474121</ele>
        <time>2020-01-15T09:40:47Z</time>
      </trkpt>
      <trkpt lat="43.4416" lon="3.50368">
        <ele>70.099998474121</ele>
        <time>2020-01-15T09:40:49Z</time>
      </trkpt>
      <trkpt lat="43.44156" lon="3.5037">
        <ele>68.099998474121</ele>
        <time>2020-01-15T09:40:54Z</time>
      </trkpt>
      <trkpt lat="43.44143" lon="3.50374">
        <ele>70.099998474121</ele>
        <time>2020-01-15T09:41:07Z</time>
      </trkpt>
      <trkpt lat="43.44139" lon="3.50375">
        <ele>69.099998474121</ele>
        <time>2020-01-15T09:41:12Z</time>
      </trkpt>
      <trkpt lat="43.44137" lon="3.50377">
        <ele>70.099998474121</ele>
        <time>2020-01-15T09:41:14Z</time>
      </trkpt>
      <trkpt lat="43.44122" lon="3.50383">
        <ele>68.099998474121</ele>
        <time>2020-01-15T09:41:25Z</time>
      </trkpt>
      <trkpt lat="43.44118" lon="3.50384">
        <ele>69.099998474121</ele>
        <time>2020-01-15T09:41:29Z</time>
      </trkpt>
      <trkpt lat="43.44112" lon="3.50389">
        <ele>70.099998474121</ele>
        <time>2020-01-15T09:41:38Z</time>
      </trkpt>
      <trkpt lat="43.44101" lon="3.50403">
        <ele>68.099998474121</ele>
        <time>2020-01-15T09:41:53Z</time>
      </trkpt>
      <trkpt lat="43.44099" lon="3.50408">
        <ele>71.099998474121</ele>
        <time>2020-01-15T09:41:58Z</time>
      </trkpt>
      <trkpt lat="43.44087" lon="3.50427">
        <ele>71.099998474121</ele>
        <time>2020-01-15T09:42:17Z</time>
      </trkpt>
      <trkpt lat="43.44084" lon="3.50433">
        <ele>71.099998474121</ele>
        <time>2020-01-15T09:42:23Z</time>
      </trkpt>
      <trkpt lat="43.44071" lon="3.50449">
        <ele>70.099998474121</ele>
        <time>2020-01-15T09:42:41Z</time>
      </trkpt>
      <trkpt lat="43.44066" lon="3.50453">
        <ele>70.099998474121</ele>
        <time>2020-01-15T09:42:47Z</time>
      </trkpt>
      <trkpt lat="43.44065" lon="3.50455">
        <ele>71.099998474121</ele>
        <time>2020-01-15T09:42:50Z</time>
      </trkpt>
      <trkpt lat="43.44063" lon="3.50461">
        <ele>72.099998474121</ele>
        <time>2020-01-15T09:43:17Z</time>
      </trkpt>
      <trkpt lat="43.44061" lon="3.50464">
        <ele>72.099998474121</ele>
        <time>2020-01-15T09:43:26Z</time>
      </trkpt>
      <trkpt lat="43.44058" lon="3.50466">
        <ele>70.099998474121</ele>
        <time>2020-01-15T09:43:41Z</time>
      </trkpt>
      <trkpt lat="43.44057" lon="3.50466">
        <ele>69.099998474121</ele>
        <time>2020-01-15T09:45:03Z</time>
      </trkpt>
      <trkpt lat="43.44056" lon="3.50461">
        <ele>69.099998474121</ele>
        <time>2020-01-15T09:45:08Z</time>
      </trkpt>
      <trkpt lat="43.44053" lon="3.50459">
        <ele>68.099998474121</ele>
        <time>2020-01-15T09:45:11Z</time>
      </trkpt>
      <trkpt lat="43.44048" lon="3.50454">
        <ele>66.099998474121</ele>
        <time>2020-01-15T09:45:18Z</time>
      </trkpt>
      <trkpt lat="43.44044" lon="3.50451">
        <ele>65.099998474121</ele>
        <time>2020-01-15T09:45:22Z</time>
      </trkpt>
      <trkpt lat="43.44038" lon="3.50443">
        <ele>67.099998474121</ele>
        <time>2020-01-15T09:45:29Z</time>
      </trkpt>
      <trkpt lat="43.44027" lon="3.5043">
        <ele>65.099998474121</ele>
        <time>2020-01-15T09:45:44Z</time>
      </trkpt>
      <trkpt lat="43.44015" lon="3.50417">
        <ele>64.099998474121</ele>
        <time>2020-01-15T09:45:56Z</time>
      </trkpt>
      <trkpt lat="43.44007" lon="3.50409">
        <ele>61.099998474121</ele>
        <time>2020-01-15T09:46:07Z</time>
      </trkpt>
      <trkpt lat="43.43994" lon="3.50397">
        <ele>61.099998474121</ele>
        <time>2020-01-15T09:46:25Z</time>
      </trkpt>
      <trkpt lat="43.43991" lon="3.50395">
        <ele>61.099998474121</ele>
        <time>2020-01-15T09:46:29Z</time>
      </trkpt>
      <trkpt lat="43.43986" lon="3.50389">
        <ele>63.099998474121</ele>
        <time>2020-01-15T09:46:36Z</time>
      </trkpt>
      <trkpt lat="43.43976" lon="3.50375">
        <ele>61.099998474121</ele>
        <time>2020-01-15T09:46:51Z</time>
      </trkpt>
      <trkpt lat="43.43966" lon="3.50367">
        <ele>61.099998474121</ele>
        <time>2020-01-15T09:47:02Z</time>
      </trkpt>
      <trkpt lat="43.43959" lon="3.5036">
        <ele>62.099998474121</ele>
        <time>2020-01-15T09:47:11Z</time>
      </trkpt>
      <trkpt lat="43.43957" lon="3.50359">
        <ele>62.099998474121</ele>
        <time>2020-01-15T09:47:12Z</time>
      </trkpt>
      <trkpt lat="43.43947" lon="3.50354">
        <ele>60.099998474121</ele>
        <time>2020-01-15T09:47:23Z</time>
      </trkpt>
      <trkpt lat="43.43936" lon="3.50342">
        <ele>59.099998474121</ele>
        <time>2020-01-15T09:47:38Z</time>
      </trkpt>
      <trkpt lat="43.43932" lon="3.5034">
        <ele>58.099998474121</ele>
        <time>2020-01-15T09:47:42Z</time>
      </trkpt>
      <trkpt lat="43.43928" lon="3.50334">
        <ele>59.099998474121</ele>
        <time>2020-01-15T09:47:49Z</time>
      </trkpt>
      <trkpt lat="43.43917" lon="3.50319">
        <ele>59.099998474121</ele>
        <time>2020-01-15T09:48:03Z</time>
      </trkpt>
      <trkpt lat="43.43912" lon="3.50314">
        <ele>59.099998474121</ele>
        <time>2020-01-15T09:48:09Z</time>
      </trkpt>
      <trkpt lat="43.43907" lon="3.50311">
        <ele>58.099998474121</ele>
        <time>2020-01-15T09:48:14Z</time>
      </trkpt>
      <trkpt lat="43.43904" lon="3.50307">
        <ele>58.099998474121</ele>
        <time>2020-01-15T09:48:19Z</time>
      </trkpt>
      <trkpt lat="43.43897" lon="3.50301">
        <ele>56.099998474121</ele>
        <time>2020-01-15T09:48:27Z</time>
      </trkpt>
      <trkpt lat="43.43891" lon="3.50294">
        <ele>58.099998474121</ele>
        <time>2020-01-15T09:48:34Z</time>
      </trkpt>
      <trkpt lat="43.43888" lon="3.50289">
        <ele>57.099998474121</ele>
        <time>2020-01-15T09:48:38Z</time>
      </trkpt>
      <trkpt lat="43.43886" lon="3.50286">
        <ele>59.099998474121</ele>
        <time>2020-01-15T09:48:42Z</time>
      </trkpt>
      <trkpt lat="43.43874" lon="3.50272">
        <ele>58.099998474121</ele>
        <time>2020-01-15T09:48:59Z</time>
      </trkpt>
      <trkpt lat="43.43867" lon="3.50261">
        <ele>58.099998474121</ele>
        <time>2020-01-15T09:49:12Z</time>
      </trkpt>
      <trkpt lat="43.43861" lon="3.50254">
        <ele>58.099998474121</ele>
        <time>2020-01-15T09:49:20Z</time>
      </trkpt>
      <trkpt lat="43.43855" lon="3.50252">
        <ele>57.099998474121</ele>
        <time>2020-01-15T09:49:27Z</time>
      </trkpt>
      <trkpt lat="43.43852" lon="3.50252">
        <ele>57.099998474121</ele>
        <time>2020-01-15T09:49:31Z</time>
      </trkpt>
      <trkpt lat="43.4385" lon="3.50253">
        <ele>58.099998474121</ele>
        <time>2020-01-15T09:49:33Z</time>
      </trkpt>
      <trkpt lat="43.43848" lon="3.50253">
        <ele>60.099998474121</ele>
        <time>2020-01-15T09:49:35Z</time>
      </trkpt>
      <trkpt lat="43.43846" lon="3.50255">
        <ele>60.099998474121</ele>
        <time>2020-01-15T09:49:38Z</time>
      </trkpt>
      <trkpt lat="43.43842" lon="3.50262">
        <ele>60.099998474121</ele>
        <time>2020-01-15T09:49:45Z</time>
      </trkpt>
      <trkpt lat="43.43839" lon="3.50266">
        <ele>60.099998474121</ele>
        <time>2020-01-15T09:49:50Z</time>
      </trkpt>
      <trkpt lat="43.43834" lon="3.50273">
        <ele>62.099998474121</ele>
        <time>2020-01-15T09:49:58Z</time>
      </trkpt>
      <trkpt lat="43.43829" lon="3.50281">
        <ele>58.099998474121</ele>
        <time>2020-01-15T09:50:06Z</time>
      </trkpt>
      <trkpt lat="43.43825" lon="3.50286">
        <ele>59.099998474121</ele>
        <time>2020-01-15T09:50:15Z</time>
      </trkpt>
      <trkpt lat="43.43827" lon="3.50282">
        <ele>61.099998474121</ele>
        <time>2020-01-15T09:53:21Z</time>
      </trkpt>
      <trkpt lat="43.43829" lon="3.50279">
        <ele>60.099998474121</ele>
        <time>2020-01-15T09:53:24Z</time>
      </trkpt>
      <trkpt lat="43.4383" lon="3.50278">
        <ele>62.099998474121</ele>
        <time>2020-01-15T09:53:25Z</time>
      </trkpt>
      <trkpt lat="43.43832" lon="3.50274">
        <ele>61.099998474121</ele>
        <time>2020-01-15T09:53:29Z</time>
      </trkpt>
      <trkpt lat="43.43834" lon="3.50267">
        <ele>59.099998474121</ele>
        <time>2020-01-15T09:53:35Z</time>
      </trkpt>
      <trkpt lat="43.43836" lon="3.50264">
        <ele>59.099998474121</ele>
        <time>2020-01-15T09:53:38Z</time>
      </trkpt>
      <trkpt lat="43.43838" lon="3.50261">
        <ele>59.099998474121</ele>
        <time>2020-01-15T09:53:42Z</time>
      </trkpt>
      <trkpt lat="43.43841" lon="3.50255">
        <ele>58.099998474121</ele>
        <time>2020-01-15T09:53:47Z</time>
      </trkpt>
      <trkpt lat="43.43845" lon="3.50252">
        <ele>58.099998474121</ele>
        <time>2020-01-15T09:53:52Z</time>
      </trkpt>
      <trkpt lat="43.43847" lon="3.50249">
        <ele>58.099998474121</ele>
        <time>2020-01-15T09:53:57Z</time>
      </trkpt>
      <trkpt lat="43.43848" lon="3.50248">
        <ele>58.099998474121</ele>
        <time>2020-01-15T09:54:07Z</time>
      </trkpt>
      <trkpt lat="43.43852" lon="3.50246">
        <ele>57.099998474121</ele>
        <time>2020-01-15T09:54:48Z</time>
      </trkpt>
      <trkpt lat="43.43853" lon="3.50242">
        <ele>57.099998474121</ele>
        <time>2020-01-15T09:55:02Z</time>
      </trkpt>
      <trkpt lat="43.43859" lon="3.50227">
        <ele>56.099998474121</ele>
        <time>2020-01-15T09:55:17Z</time>
      </trkpt>
      <trkpt lat="43.4386" lon="3.50224">
        <ele>56.099998474121</ele>
        <time>2020-01-15T09:55:20Z</time>
      </trkpt>
      <trkpt lat="43.43869" lon="3.50201">
        <ele>55.099998474121</ele>
        <time>2020-01-15T09:55:41Z</time>
      </trkpt>
      <trkpt lat="43.43876" lon="3.50183">
        <ele>57.099998474121</ele>
        <time>2020-01-15T09:55:57Z</time>
      </trkpt>
      <trkpt lat="43.43877" lon="3.50177">
        <ele>57.099998474121</ele>
        <time>2020-01-15T09:56:01Z</time>
      </trkpt>
      <trkpt lat="43.43879" lon="3.5017">
        <ele>57.099998474121</ele>
        <time>2020-01-15T09:56:08Z</time>
      </trkpt>
      <trkpt lat="43.43885" lon="3.50155">
        <ele>59.099998474121</ele>
        <time>2020-01-15T09:56:21Z</time>
      </trkpt>
      <trkpt lat="43.4389" lon="3.50142">
        <ele>57.099998474121</ele>
        <time>2020-01-15T09:56:34Z</time>
      </trkpt>
      <trkpt lat="43.43892" lon="3.50134">
        <ele>57.099998474121</ele>
        <time>2020-01-15T09:56:40Z</time>
      </trkpt>
      <trkpt lat="43.43897" lon="3.50122">
        <ele>56.099998474121</ele>
        <time>2020-01-15T09:56:52Z</time>
      </trkpt>
      <trkpt lat="43.43898" lon="3.50118">
        <ele>54.099998474121</ele>
        <time>2020-01-15T09:56:55Z</time>
      </trkpt>
      <trkpt lat="43.43905" lon="3.501">
        <ele>56.099998474121</ele>
        <time>2020-01-15T09:57:11Z</time>
      </trkpt>
      <trkpt lat="43.43908" lon="3.50089">
        <ele>55.099998474121</ele>
        <time>2020-01-15T09:57:21Z</time>
      </trkpt>
      <trkpt lat="43.43917" lon="3.50073">
        <ele>54.099998474121</ele>
        <time>2020-01-15T09:57:32Z</time>
      </trkpt>
      <trkpt lat="43.43922" lon="3.50064">
        <ele>56.099998474121</ele>
        <time>2020-01-15T09:57:41Z</time>
      </trkpt>
      <trkpt lat="43.43926" lon="3.50051">
        <ele>56.099998474121</ele>
        <time>2020-01-15T09:57:51Z</time>
      </trkpt>
      <trkpt lat="43.43926" lon="3.50047">
        <ele>55.099998474121</ele>
        <time>2020-01-15T09:57:55Z</time>
      </trkpt>
      <trkpt lat="43.43931" lon="3.50032">
        <ele>56.099998474121</ele>
        <time>2020-01-15T09:58:08Z</time>
      </trkpt>
      <trkpt lat="43.43931" lon="3.50031">
        <ele>54.099998474121</ele>
        <time>2020-01-15T09:58:09Z</time>
      </trkpt>
      <trkpt lat="43.43932" lon="3.50025">
        <ele>54.099998474121</ele>
        <time>2020-01-15T09:58:14Z</time>
      </trkpt>
      <trkpt lat="43.43934" lon="3.50018">
        <ele>54.099998474121</ele>
        <time>2020-01-15T09:58:20Z</time>
      </trkpt>
      <trkpt lat="43.43934" lon="3.50011">
        <ele>53.099998474121</ele>
        <time>2020-01-15T09:58:25Z</time>
      </trkpt>
      <trkpt lat="43.43935" lon="3.50009">
        <ele>52.099998474121</ele>
        <time>2020-01-15T09:58:27Z</time>
      </trkpt>
      <trkpt lat="43.43944" lon="3.4999">
        <ele>53.099998474121</ele>
        <time>2020-01-15T09:58:42Z</time>
      </trkpt>
      <trkpt lat="43.43951" lon="3.49971">
        <ele>53.099998474121</ele>
        <time>2020-01-15T09:58:58Z</time>
      </trkpt>
      <trkpt lat="43.43953" lon="3.49962">
        <ele>52.099998474121</ele>
        <time>2020-01-15T09:59:05Z</time>
      </trkpt>
      <trkpt lat="43.43953" lon="3.49959">
        <ele>52.099998474121</ele>
        <time>2020-01-15T09:59:07Z</time>
      </trkpt>
      <trkpt lat="43.43952" lon="3.49944">
        <ele>52.099998474121</ele>
        <time>2020-01-15T09:59:17Z</time>
      </trkpt>
      <trkpt lat="43.43952" lon="3.49942">
        <ele>52.099998474121</ele>
        <time>2020-01-15T09:59:18Z</time>
      </trkpt>
      <trkpt lat="43.43952" lon="3.49939">
        <ele>53.099998474121</ele>
        <time>2020-01-15T09:59:20Z</time>
      </trkpt>
      <trkpt lat="43.43953" lon="3.49936">
        <ele>54.099998474121</ele>
        <time>2020-01-15T09:59:23Z</time>
      </trkpt>
      <trkpt lat="43.43955" lon="3.49934">
        <ele>53.099998474121</ele>
        <time>2020-01-15T09:59:26Z</time>
      </trkpt>
      <trkpt lat="43.43957" lon="3.49933">
        <ele>53.099998474121</ele>
        <time>2020-01-15T09:59:29Z</time>
      </trkpt>
      <trkpt lat="43.43962" lon="3.4993">
        <ele>55.099998474121</ele>
        <time>2020-01-15T09:59:36Z</time>
      </trkpt>
      <trkpt lat="43.43967" lon="3.49927">
        <ele>54.099998474121</ele>
        <time>2020-01-15T09:59:43Z</time>
      </trkpt>
      <trkpt lat="43.43973" lon="3.49926">
        <ele>52.099998474121</ele>
        <time>2020-01-15T09:59:49Z</time>
      </trkpt>
      <trkpt lat="43.43985" lon="3.4992">
        <ele>53.099998474121</ele>
        <time>2020-01-15T10:00:03Z</time>
      </trkpt>
      <trkpt lat="43.43995" lon="3.49919">
        <ele>54.099998474121</ele>
        <time>2020-01-15T10:00:15Z</time>
      </trkpt>
      <trkpt lat="43.43998" lon="3.4992">
        <ele>53.099998474121</ele>
        <time>2020-01-15T10:00:18Z</time>
      </trkpt>
      <trkpt lat="43.44011" lon="3.49929">
        <ele>54.099998474121</ele>
        <time>2020-01-15T10:00:33Z</time>
      </trkpt>
      <trkpt lat="43.44019" lon="3.49935">
        <ele>52.099998474121</ele>
        <time>2020-01-15T10:00:42Z</time>
      </trkpt>
      <trkpt lat="43.44031" lon="3.49943">
        <ele>55.099998474121</ele>
        <time>2020-01-15T10:00:57Z</time>
      </trkpt>
      <trkpt lat="43.44046" lon="3.4995">
        <ele>56.099998474121</ele>
        <time>2020-01-15T10:01:12Z</time>
      </trkpt>
      <trkpt lat="43.44055" lon="3.49951">
        <ele>56.099998474121</ele>
        <time>2020-01-15T10:01:26Z</time>
      </trkpt>
      <trkpt lat="43.4407" lon="3.49951">
        <ele>54.099998474121</ele>
        <time>2020-01-15T10:01:45Z</time>
      </trkpt>
      <trkpt lat="43.44081" lon="3.49946">
        <ele>52.099998474121</ele>
        <time>2020-01-15T10:01:56Z</time>
      </trkpt>
      <trkpt lat="43.44086" lon="3.49943">
        <ele>53.099998474121</ele>
        <time>2020-01-15T10:02:02Z</time>
      </trkpt>
      <trkpt lat="43.44096" lon="3.49934">
        <ele>55.099998474121</ele>
        <time>2020-01-15T10:02:16Z</time>
      </trkpt>
      <trkpt lat="43.441" lon="3.49928">
        <ele>53.099998474121</ele>
        <time>2020-01-15T10:02:21Z</time>
      </trkpt>
      <trkpt lat="43.44102" lon="3.49926">
        <ele>54.099998474121</ele>
        <time>2020-01-15T10:02:23Z</time>
      </trkpt>
      <trkpt lat="43.44104" lon="3.49925">
        <ele>55.099998474121</ele>
        <time>2020-01-15T10:02:24Z</time>
      </trkpt>
      <trkpt lat="43.44105" lon="3.49925">
        <ele>57.099998474121</ele>
        <time>2020-01-15T10:02:25Z</time>
      </trkpt>
      <trkpt lat="43.44112" lon="3.49923">
        <ele>55.099998474121</ele>
        <time>2020-01-15T10:02:31Z</time>
      </trkpt>
      <trkpt lat="43.44115" lon="3.49921">
        <ele>56.099998474121</ele>
        <time>2020-01-15T10:02:35Z</time>
      </trkpt>
      <trkpt lat="43.44117" lon="3.49919">
        <ele>55.099998474121</ele>
        <time>2020-01-15T10:02:38Z</time>
      </trkpt>
      <trkpt lat="43.44118" lon="3.49917">
        <ele>55.099998474121</ele>
        <time>2020-01-15T10:02:41Z</time>
      </trkpt>
      <trkpt lat="43.44122" lon="3.4991">
        <ele>52.099998474121</ele>
        <time>2020-01-15T10:02:48Z</time>
      </trkpt>
      <trkpt lat="43.44124" lon="3.49905">
        <ele>53.099998474121</ele>
        <time>2020-01-15T10:02:52Z</time>
      </trkpt>
      <trkpt lat="43.44125" lon="3.49898">
        <ele>53.099998474121</ele>
        <time>2020-01-15T10:02:58Z</time>
      </trkpt>
      <trkpt lat="43.44126" lon="3.49894">
        <ele>53.099998474121</ele>
        <time>2020-01-15T10:03:02Z</time>
      </trkpt>
      <trkpt lat="43.44127" lon="3.49892">
        <ele>54.099998474121</ele>
        <time>2020-01-15T10:03:04Z</time>
      </trkpt>
      <trkpt lat="43.44132" lon="3.49887">
        <ele>53.099998474121</ele>
        <time>2020-01-15T10:03:11Z</time>
      </trkpt>
      <trkpt lat="43.44141" lon="3.49878">
        <ele>53.099998474121</ele>
        <time>2020-01-15T10:03:23Z</time>
      </trkpt>
      <trkpt lat="43.44155" lon="3.49871">
        <ele>52.099998474121</ele>
        <time>2020-01-15T10:03:40Z</time>
      </trkpt>
      <trkpt lat="43.44168" lon="3.49868">
        <ele>53.099998474121</ele>
        <time>2020-01-15T10:03:54Z</time>
      </trkpt>
      <trkpt lat="43.4418" lon="3.49864">
        <ele>55.099998474121</ele>
        <time>2020-01-15T10:04:06Z</time>
      </trkpt>
      <trkpt lat="43.44187" lon="3.49859">
        <ele>57.099998474121</ele>
        <time>2020-01-15T10:04:16Z</time>
      </trkpt>
      <trkpt lat="43.44202" lon="3.49853">
        <ele>56.099998474121</ele>
        <time>2020-01-15T10:04:33Z</time>
      </trkpt>
      <trkpt lat="43.44208" lon="3.49851">
        <ele>58.099998474121</ele>
        <time>2020-01-15T10:04:40Z</time>
      </trkpt>
      <trkpt lat="43.44218" lon="3.49845">
        <ele>56.099998474121</ele>
        <time>2020-01-15T10:04:50Z</time>
      </trkpt>
      <trkpt lat="43.44233" lon="3.49835">
        <ele>56.099998474121</ele>
        <time>2020-01-15T10:05:06Z</time>
      </trkpt>
      <trkpt lat="43.44242" lon="3.4983">
        <ele>55.099998474121</ele>
        <time>2020-01-15T10:05:16Z</time>
      </trkpt>
      <trkpt lat="43.44248" lon="3.49828">
        <ele>57.099998474121</ele>
        <time>2020-01-15T10:05:24Z</time>
      </trkpt>
      <trkpt lat="43.44253" lon="3.49827">
        <ele>55.099998474121</ele>
        <time>2020-01-15T10:05:29Z</time>
      </trkpt>
      <trkpt lat="43.44264" lon="3.49825">
        <ele>56.099998474121</ele>
        <time>2020-01-15T10:05:41Z</time>
      </trkpt>
      <trkpt lat="43.44275" lon="3.49821">
        <ele>58.099998474121</ele>
        <time>2020-01-15T10:05:52Z</time>
      </trkpt>
      <trkpt lat="43.44282" lon="3.4982">
        <ele>58.099998474121</ele>
        <time>2020-01-15T10:06:01Z</time>
      </trkpt>
      <trkpt lat="43.44284" lon="3.4982">
        <ele>59.099998474121</ele>
        <time>2020-01-15T10:06:03Z</time>
      </trkpt>
      <trkpt lat="43.44299" lon="3.49822">
        <ele>59.099998474121</ele>
        <time>2020-01-15T10:06:18Z</time>
      </trkpt>
      <trkpt lat="43.44309" lon="3.49821">
        <ele>59.099998474121</ele>
        <time>2020-01-15T10:06:27Z</time>
      </trkpt>
      <trkpt lat="43.44324" lon="3.49823">
        <ele>59.099998474121</ele>
        <time>2020-01-15T10:06:42Z</time>
      </trkpt>
      <trkpt lat="43.44339" lon="3.49825">
        <ele>60.099998474121</ele>
        <time>2020-01-15T10:06:58Z</time>
      </trkpt>
      <trkpt lat="43.44343" lon="3.49825">
        <ele>60.099998474121</ele>
        <time>2020-01-15T10:07:03Z</time>
      </trkpt>
      <trkpt lat="43.44345" lon="3.49826">
        <ele>60.099998474121</ele>
        <time>2020-01-15T10:07:05Z</time>
      </trkpt>
      <trkpt lat="43.44349" lon="3.49827">
        <ele>58.099998474121</ele>
        <time>2020-01-15T10:07:09Z</time>
      </trkpt>
      <trkpt lat="43.44355" lon="3.49828">
        <ele>57.099998474121</ele>
        <time>2020-01-15T10:07:16Z</time>
      </trkpt>
      <trkpt lat="43.44361" lon="3.49829">
        <ele>60.099998474121</ele>
        <time>2020-01-15T10:07:22Z</time>
      </trkpt>
      <trkpt lat="43.44366" lon="3.49829">
        <ele>61.099998474121</ele>
        <time>2020-01-15T10:07:27Z</time>
      </trkpt>
      <trkpt lat="43.44378" lon="3.49826">
        <ele>60.099998474121</ele>
        <time>2020-01-15T10:07:39Z</time>
      </trkpt>
      <trkpt lat="43.44384" lon="3.49825">
        <ele>59.099998474121</ele>
        <time>2020-01-15T10:07:44Z</time>
      </trkpt>
      <trkpt lat="43.44398" lon="3.49818">
        <ele>60.099998474121</ele>
        <time>2020-01-15T10:08:00Z</time>
      </trkpt>
      <trkpt lat="43.44413" lon="3.49808">
        <ele>60.099998474121</ele>
        <time>2020-01-15T10:08:17Z</time>
      </trkpt>
      <trkpt lat="43.44418" lon="3.49806">
        <ele>58.099998474121</ele>
        <time>2020-01-15T10:08:23Z</time>
      </trkpt>
      <trkpt lat="43.44424" lon="3.49804">
        <ele>58.099998474121</ele>
        <time>2020-01-15T10:08:29Z</time>
      </trkpt>
      <trkpt lat="43.44426" lon="3.49804">
        <ele>60.099998474121</ele>
        <time>2020-01-15T10:08:53Z</time>
      </trkpt>
      <trkpt lat="43.44429" lon="3.49803">
        <ele>60.099998474121</ele>
        <time>2020-01-15T10:08:58Z</time>
      </trkpt>
      <trkpt lat="43.44433" lon="3.498">
        <ele>62.099998474121</ele>
        <time>2020-01-15T10:09:11Z</time>
      </trkpt>
      <trkpt lat="43.44438" lon="3.49801">
        <ele>61.099998474121</ele>
        <time>2020-01-15T10:09:20Z</time>
      </trkpt>
      <trkpt lat="43.4444" lon="3.49801">
        <ele>62.099998474121</ele>
        <time>2020-01-15T10:11:05Z</time>
      </trkpt>
      <trkpt lat="43.44441" lon="3.498">
        <ele>63.099998474121</ele>
        <time>2020-01-15T10:11:06Z</time>
      </trkpt>
      <trkpt lat="43.44443" lon="3.498">
        <ele>61.099998474121</ele>
        <time>2020-01-15T10:11:29Z</time>
      </trkpt>
      <trkpt lat="43.44447" lon="3.498">
        <ele>61.099998474121</ele>
        <time>2020-01-15T10:11:43Z</time>
      </trkpt>
      <trkpt lat="43.4445" lon="3.49801">
        <ele>57.099998474121</ele>
        <time>2020-01-15T10:14:11Z</time>
      </trkpt>
      <trkpt lat="43.4445" lon="3.49801">
        <ele>58.099998474121</ele>
        <time>2020-01-15T10:14:44Z</time>
      </trkpt>
      <trkpt lat="43.44451" lon="3.49801">
        <ele>62.099998474121</ele>
        <time>2020-01-15T10:14:53Z</time>
      </trkpt>
      <trkpt lat="43.44452" lon="3.498">
        <ele>63.099998474121</ele>
        <time>2020-01-15T10:14:58Z</time>
      </trkpt>
      <trkpt lat="43.44455" lon="3.49797">
        <ele>63.099998474121</ele>
        <time>2020-01-15T10:15:03Z</time>
      </trkpt>
      <trkpt lat="43.44462" lon="3.49791">
        <ele>63.099998474121</ele>
        <time>2020-01-15T10:15:15Z</time>
      </trkpt>
      <trkpt lat="43.4447" lon="3.49784">
        <ele>63.099998474121</ele>
        <time>2020-01-15T10:15:27Z</time>
      </trkpt>
      <trkpt lat="43.44476" lon="3.49777">
        <ele>64.099998474121</ele>
        <time>2020-01-15T10:15:37Z</time>
      </trkpt>
      <trkpt lat="43.4449" lon="3.49765">
        <ele>64.099998474121</ele>
        <time>2020-01-15T10:15:54Z</time>
      </trkpt>
      <trkpt lat="43.44502" lon="3.49754">
        <ele>64.099998474121</ele>
        <time>2020-01-15T10:16:11Z</time>
      </trkpt>
      <trkpt lat="43.44515" lon="3.49744">
        <ele>64.099998474121</ele>
        <time>2020-01-15T10:16:28Z</time>
      </trkpt>
      <trkpt lat="43.44525" lon="3.49739">
        <ele>62.099998474121</ele>
        <time>2020-01-15T10:16:39Z</time>
      </trkpt>
      <trkpt lat="43.44538" lon="3.49729">
        <ele>64.099998474121</ele>
        <time>2020-01-15T10:16:55Z</time>
      </trkpt>
      <trkpt lat="43.44543" lon="3.49724">
        <ele>64.099998474121</ele>
        <time>2020-01-15T10:17:03Z</time>
      </trkpt>
      <trkpt lat="43.44544" lon="3.49724">
        <ele>63.099998474121</ele>
        <time>2020-01-15T10:17:05Z</time>
      </trkpt>
      <trkpt lat="43.44547" lon="3.49719">
        <ele>63.099998474121</ele>
        <time>2020-01-15T10:17:17Z</time>
      </trkpt>
      <trkpt lat="43.4455" lon="3.49717">
        <ele>64.099998474121</ele>
        <time>2020-01-15T10:17:29Z</time>
      </trkpt>
      <trkpt lat="43.44551" lon="3.49716">
        <ele>65.099998474121</ele>
        <time>2020-01-15T10:17:37Z</time>
      </trkpt>
      <trkpt lat="43.4456" lon="3.49707">
        <ele>63.099998474121</ele>
        <time>2020-01-15T10:17:51Z</time>
      </trkpt>
      <trkpt lat="43.44563" lon="3.49703">
        <ele>64.099998474121</ele>
        <time>2020-01-15T10:17:57Z</time>
      </trkpt>
      <trkpt lat="43.44567" lon="3.49701">
        <ele>65.099998474121</ele>
        <time>2020-01-15T10:18:03Z</time>
      </trkpt>
      <trkpt lat="43.44582" lon="3.497">
        <ele>65.099998474121</ele>
        <time>2020-01-15T10:18:18Z</time>
      </trkpt>
      <trkpt lat="43.44595" lon="3.49699">
        <ele>66.099998474121</ele>
        <time>2020-01-15T10:18:32Z</time>
      </trkpt>
      <trkpt lat="43.44603" lon="3.49697">
        <ele>68.099998474121</ele>
        <time>2020-01-15T10:18:41Z</time>
      </trkpt>
      <trkpt lat="43.44605" lon="3.49696">
        <ele>67.099998474121</ele>
        <time>2020-01-15T10:18:43Z</time>
      </trkpt>
      <trkpt lat="43.44606" lon="3.49695">
        <ele>67.099998474121</ele>
        <time>2020-01-15T10:18:45Z</time>
      </trkpt>
      <trkpt lat="43.44608" lon="3.49694">
        <ele>66.099998474121</ele>
        <time>2020-01-15T10:18:47Z</time>
      </trkpt>
      <trkpt lat="43.44612" lon="3.49691">
        <ele>66.099998474121</ele>
        <time>2020-01-15T10:18:52Z</time>
      </trkpt>
      <trkpt lat="43.44615" lon="3.49688">
        <ele>65.099998474121</ele>
        <time>2020-01-15T10:18:56Z</time>
      </trkpt>
      <trkpt lat="43.44617" lon="3.49688">
        <ele>65.099998474121</ele>
        <time>2020-01-15T10:18:57Z</time>
      </trkpt>
      <trkpt lat="43.44618" lon="3.49688">
        <ele>65.099998474121</ele>
        <time>2020-01-15T10:18:58Z</time>
      </trkpt>
      <trkpt lat="43.4462" lon="3.49687">
        <ele>66.099998474121</ele>
        <time>2020-01-15T10:19:00Z</time>
      </trkpt>
      <trkpt lat="43.44634" lon="3.49691">
        <ele>65.099998474121</ele>
        <time>2020-01-15T10:19:15Z</time>
      </trkpt>
      <trkpt lat="43.44636" lon="3.49692">
        <ele>65.099998474121</ele>
        <time>2020-01-15T10:19:18Z</time>
      </trkpt>
      <trkpt lat="43.44649" lon="3.49702">
        <ele>65.099998474121</ele>
        <time>2020-01-15T10:19:36Z</time>
      </trkpt>
      <trkpt lat="43.44655" lon="3.49706">
        <ele>65.099998474121</ele>
        <time>2020-01-15T10:19:42Z</time>
      </trkpt>
      <trkpt lat="43.44668" lon="3.49718">
        <ele>66.099998474121</ele>
        <time>2020-01-15T10:19:59Z</time>
      </trkpt>
      <trkpt lat="43.44678" lon="3.49727">
        <ele>66.099998474121</ele>
        <time>2020-01-15T10:20:11Z</time>
      </trkpt>
      <trkpt lat="43.4469" lon="3.4974">
        <ele>64.099998474121</ele>
        <time>2020-01-15T10:20:26Z</time>
      </trkpt>
      <trkpt lat="43.44696" lon="3.49745">
        <ele>65.099998474121</ele>
        <time>2020-01-15T10:20:34Z</time>
      </trkpt>
      <trkpt lat="43.44701" lon="3.49748">
        <ele>65.099998474121</ele>
        <time>2020-01-15T10:20:39Z</time>
      </trkpt>
      <trkpt lat="43.44703" lon="3.49749">
        <ele>66.099998474121</ele>
        <time>2020-01-15T10:20:41Z</time>
      </trkpt>
      <trkpt lat="43.44718" lon="3.49749">
        <ele>67.099998474121</ele>
        <time>2020-01-15T10:20:57Z</time>
      </trkpt>
      <trkpt lat="43.44733" lon="3.49749">
        <ele>68.099998474121</ele>
        <time>2020-01-15T10:21:12Z</time>
      </trkpt>
      <trkpt lat="43.44748" lon="3.49745">
        <ele>70.099998474121</ele>
        <time>2020-01-15T10:21:29Z</time>
      </trkpt>
      <trkpt lat="43.44751" lon="3.49745">
        <ele>71.099998474121</ele>
        <time>2020-01-15T10:21:33Z</time>
      </trkpt>
      <trkpt lat="43.44752" lon="3.49745">
        <ele>71.099998474121</ele>
        <time>2020-01-15T10:21:34Z</time>
      </trkpt>
      <trkpt lat="43.44754" lon="3.49746">
        <ele>68.099998474121</ele>
        <time>2020-01-15T10:21:45Z</time>
      </trkpt>
      <trkpt lat="43.44756" lon="3.49747">
        <ele>67.099998474121</ele>
        <time>2020-01-15T10:21:56Z</time>
      </trkpt>
      <trkpt lat="43.44756" lon="3.49747">
        <ele>67.099998474121</ele>
        <time>2020-01-15T10:21:57Z</time>
      </trkpt>
      <trkpt lat="43.44761" lon="3.49748">
        <ele>66.099998474121</ele>
        <time>2020-01-15T10:22:04Z</time>
      </trkpt>
      <trkpt lat="43.44765" lon="3.49751">
        <ele>67.099998474121</ele>
        <time>2020-01-15T10:22:10Z</time>
      </trkpt>
      <trkpt lat="43.44767" lon="3.49752">
        <ele>68.099998474121</ele>
        <time>2020-01-15T10:22:13Z</time>
      </trkpt>
      <trkpt lat="43.44769" lon="3.49752">
        <ele>67.099998474121</ele>
        <time>2020-01-15T10:22:16Z</time>
      </trkpt>
      <trkpt lat="43.44777" lon="3.49749">
        <ele>67.099998474121</ele>
        <time>2020-01-15T10:22:26Z</time>
      </trkpt>
      <trkpt lat="43.44783" lon="3.49746">
        <ele>67.099998474121</ele>
        <time>2020-01-15T10:22:33Z</time>
      </trkpt>
      <trkpt lat="43.44785" lon="3.49744">
        <ele>69.099998474121</ele>
        <time>2020-01-15T10:22:36Z</time>
      </trkpt>
      <trkpt lat="43.44787" lon="3.49741">
        <ele>69.099998474121</ele>
        <time>2020-01-15T10:22:41Z</time>
      </trkpt>
      <trkpt lat="43.44792" lon="3.49736">
        <ele>69.099998474121</ele>
        <time>2020-01-15T10:22:47Z</time>
      </trkpt>
      <trkpt lat="43.44798" lon="3.49725">
        <ele>73.099998474121</ele>
        <time>2020-01-15T10:23:02Z</time>
      </trkpt>
      <trkpt lat="43.448" lon="3.4972">
        <ele>73.099998474121</ele>
        <time>2020-01-15T10:23:07Z</time>
      </trkpt>
      <trkpt lat="43.44801" lon="3.49702">
        <ele>77.099998474121</ele>
        <time>2020-01-15T10:23:21Z</time>
      </trkpt>
      <trkpt lat="43.448" lon="3.49692">
        <ele>76.099998474121</ele>
        <time>2020-01-15T10:23:30Z</time>
      </trkpt>
      <trkpt lat="43.44801" lon="3.49684">
        <ele>76.099998474121</ele>
        <time>2020-01-15T10:23:35Z</time>
      </trkpt>
      <trkpt lat="43.44801" lon="3.4968">
        <ele>76.099998474121</ele>
        <time>2020-01-15T10:23:39Z</time>
      </trkpt>
      <trkpt lat="43.44806" lon="3.49672">
        <ele>78.099998474121</ele>
        <time>2020-01-15T10:23:48Z</time>
      </trkpt>
      <trkpt lat="43.44808" lon="3.49669">
        <ele>79.099998474121</ele>
        <time>2020-01-15T10:23:52Z</time>
      </trkpt>
      <trkpt lat="43.44819" lon="3.49661">
        <ele>81.099998474121</ele>
        <time>2020-01-15T10:24:07Z</time>
      </trkpt>
      <trkpt lat="43.44827" lon="3.49656">
        <ele>79.099998474121</ele>
        <time>2020-01-15T10:24:17Z</time>
      </trkpt>
      <trkpt lat="43.4484" lon="3.49645">
        <ele>81.099998474121</ele>
        <time>2020-01-15T10:24:31Z</time>
      </trkpt>
      <trkpt lat="43.44848" lon="3.49639">
        <ele>80.099998474121</ele>
        <time>2020-01-15T10:24:42Z</time>
      </trkpt>
      <trkpt lat="43.44863" lon="3.49633">
        <ele>81.099998474121</ele>
        <time>2020-01-15T10:24:58Z</time>
      </trkpt>
      <trkpt lat="43.44874" lon="3.49627">
        <ele>81.099998474121</ele>
        <time>2020-01-15T10:25:10Z</time>
      </trkpt>
      <trkpt lat="43.44879" lon="3.49622">
        <ele>81.099998474121</ele>
        <time>2020-01-15T10:25:16Z</time>
      </trkpt>
      <trkpt lat="43.44885" lon="3.49613">
        <ele>83.099998474121</ele>
        <time>2020-01-15T10:25:27Z</time>
      </trkpt>
      <trkpt lat="43.44891" lon="3.49607">
        <ele>83.099998474121</ele>
        <time>2020-01-15T10:25:35Z</time>
      </trkpt>
      <trkpt lat="43.44905" lon="3.49596">
        <ele>84.099998474121</ele>
        <time>2020-01-15T10:25:50Z</time>
      </trkpt>
      <trkpt lat="43.44919" lon="3.49589">
        <ele>83.099998474121</ele>
        <time>2020-01-15T10:26:05Z</time>
      </trkpt>
      <trkpt lat="43.44923" lon="3.49587">
        <ele>85.099998474121</ele>
        <time>2020-01-15T10:26:10Z</time>
      </trkpt>
      <trkpt lat="43.44938" lon="3.49582">
        <ele>81.099998474121</ele>
        <time>2020-01-15T10:26:26Z</time>
      </trkpt>
      <trkpt lat="43.44953" lon="3.49581">
        <ele>81.099998474121</ele>
        <time>2020-01-15T10:26:41Z</time>
      </trkpt>
      <trkpt lat="43.44958" lon="3.49581">
        <ele>82.099998474121</ele>
        <time>2020-01-15T10:26:45Z</time>
      </trkpt>
      <trkpt lat="43.44967" lon="3.49584">
        <ele>83.099998474121</ele>
        <time>2020-01-15T10:26:52Z</time>
      </trkpt>
      <trkpt lat="43.4497" lon="3.49584">
        <ele>82.099998474121</ele>
        <time>2020-01-15T10:26:55Z</time>
      </trkpt>
      <trkpt lat="43.44974" lon="3.49584">
        <ele>82.099998474121</ele>
        <time>2020-01-15T10:27:00Z</time>
      </trkpt>
      <trkpt lat="43.44979" lon="3.4958">
        <ele>84.099998474121</ele>
        <time>2020-01-15T10:27:05Z</time>
      </trkpt>
      <trkpt lat="43.44981" lon="3.49576">
        <ele>84.099998474121</ele>
        <time>2020-01-15T10:27:08Z</time>
      </trkpt>
      <trkpt lat="43.44983" lon="3.49573">
        <ele>85.099998474121</ele>
        <time>2020-01-15T10:27:12Z</time>
      </trkpt>
      <trkpt lat="43.44984" lon="3.49571">
        <ele>84.099998474121</ele>
        <time>2020-01-15T10:27:15Z</time>
      </trkpt>
      <trkpt lat="43.44985" lon="3.49569">
        <ele>84.099998474121</ele>
        <time>2020-01-15T10:27:16Z</time>
      </trkpt>
      <trkpt lat="43.44985" lon="3.49566">
        <ele>84.099998474121</ele>
        <time>2020-01-15T10:27:19Z</time>
      </trkpt>
      <trkpt lat="43.44985" lon="3.49559">
        <ele>84.099998474121</ele>
        <time>2020-01-15T10:27:24Z</time>
      </trkpt>
      <trkpt lat="43.44988" lon="3.49551">
        <ele>83.099998474121</ele>
        <time>2020-01-15T10:27:31Z</time>
      </trkpt>
      <trkpt lat="43.44997" lon="3.49533">
        <ele>84.099998474121</ele>
        <time>2020-01-15T10:27:43Z</time>
      </trkpt>
      <trkpt lat="43.45001" lon="3.4953">
        <ele>84.099998474121</ele>
        <time>2020-01-15T10:27:48Z</time>
      </trkpt>
      <trkpt lat="43.45004" lon="3.49526">
        <ele>82.099998474121</ele>
        <time>2020-01-15T10:27:56Z</time>
      </trkpt>
      <trkpt lat="43.45011" lon="3.4952">
        <ele>83.099998474121</ele>
        <time>2020-01-15T10:28:06Z</time>
      </trkpt>
      <trkpt lat="43.45014" lon="3.49519">
        <ele>83.099998474121</ele>
        <time>2020-01-15T10:28:09Z</time>
      </trkpt>
      <trkpt lat="43.45018" lon="3.49515">
        <ele>82.099998474121</ele>
        <time>2020-01-15T10:28:15Z</time>
      </trkpt>
      <trkpt lat="43.45031" lon="3.49503">
        <ele>80.099998474121</ele>
        <time>2020-01-15T10:28:34Z</time>
      </trkpt>
      <trkpt lat="43.4504" lon="3.49494">
        <ele>83.099998474121</ele>
        <time>2020-01-15T10:28:46Z</time>
      </trkpt>
      <trkpt lat="43.45047" lon="3.49486">
        <ele>84.099998474121</ele>
        <time>2020-01-15T10:28:55Z</time>
      </trkpt>
      <trkpt lat="43.45053" lon="3.49479">
        <ele>87.099998474121</ele>
        <time>2020-01-15T10:29:04Z</time>
      </trkpt>
      <trkpt lat="43.45061" lon="3.49471">
        <ele>89.099998474121</ele>
        <time>2020-01-15T10:29:14Z</time>
      </trkpt>
      <trkpt lat="43.45066" lon="3.49464">
        <ele>87.099998474121</ele>
        <time>2020-01-15T10:29:21Z</time>
      </trkpt>
      <trkpt lat="43.45078" lon="3.49452">
        <ele>87.099998474121</ele>
        <time>2020-01-15T10:29:39Z</time>
      </trkpt>
      <trkpt lat="43.45091" lon="3.4944">
        <ele>89.099998474121</ele>
        <time>2020-01-15T10:29:54Z</time>
      </trkpt>
      <trkpt lat="43.45093" lon="3.49438">
        <ele>89.099998474121</ele>
        <time>2020-01-15T10:29:57Z</time>
      </trkpt>
      <trkpt lat="43.451" lon="3.49436">
        <ele>89.099998474121</ele>
        <time>2020-01-15T10:30:05Z</time>
      </trkpt>
      <trkpt lat="43.4511" lon="3.49429">
        <ele>89.099998474121</ele>
        <time>2020-01-15T10:30:17Z</time>
      </trkpt>
      <trkpt lat="43.45112" lon="3.49428">
        <ele>90.099998474121</ele>
        <time>2020-01-15T10:30:19Z</time>
      </trkpt>
      <trkpt lat="43.45125" lon="3.49419">
        <ele>89.099998474121</ele>
        <time>2020-01-15T10:30:38Z</time>
      </trkpt>
      <trkpt lat="43.45139" lon="3.49411">
        <ele>89.099998474121</ele>
        <time>2020-01-15T10:30:51Z</time>
      </trkpt>
      <trkpt lat="43.45154" lon="3.49407">
        <ele>91.099998474121</ele>
        <time>2020-01-15T10:31:06Z</time>
      </trkpt>
      <trkpt lat="43.45166" lon="3.494">
        <ele>89.099998474121</ele>
        <time>2020-01-15T10:31:19Z</time>
      </trkpt>
      <trkpt lat="43.45181" lon="3.49395">
        <ele>90.099998474121</ele>
        <time>2020-01-15T10:31:36Z</time>
      </trkpt>
      <trkpt lat="43.45198" lon="3.4939">
        <ele>92.099998474121</ele>
        <time>2020-01-15T10:31:54Z</time>
      </trkpt>
      <trkpt lat="43.45214" lon="3.49385">
        <ele>92.099998474121</ele>
        <time>2020-01-15T10:32:09Z</time>
      </trkpt>
      <trkpt lat="43.45221" lon="3.49379">
        <ele>91.099998474121</ele>
        <time>2020-01-15T10:32:17Z</time>
      </trkpt>
      <trkpt lat="43.45233" lon="3.49365">
        <ele>90.099998474121</ele>
        <time>2020-01-15T10:32:37Z</time>
      </trkpt>
      <trkpt lat="43.45237" lon="3.49361">
        <ele>89.099998474121</ele>
        <time>2020-01-15T10:32:43Z</time>
      </trkpt>
      <trkpt lat="43.4525" lon="3.49355">
        <ele>90.099998474121</ele>
        <time>2020-01-15T10:32:56Z</time>
      </trkpt>
      <trkpt lat="43.45264" lon="3.49352">
        <ele>92.099998474121</ele>
        <time>2020-01-15T10:33:09Z</time>
      </trkpt>
      <trkpt lat="43.45279" lon="3.49351">
        <ele>92.099998474121</ele>
        <time>2020-01-15T10:33:23Z</time>
      </trkpt>
      <trkpt lat="43.45293" lon="3.4935">
        <ele>94.099998474121</ele>
        <time>2020-01-15T10:33:37Z</time>
      </trkpt>
      <trkpt lat="43.45312" lon="3.49355">
        <ele>93.099998474121</ele>
        <time>2020-01-15T10:33:58Z</time>
      </trkpt>
      <trkpt lat="43.45316" lon="3.49357">
        <ele>91.099998474121</ele>
        <time>2020-01-15T10:34:03Z</time>
      </trkpt>
      <trkpt lat="43.45329" lon="3.49367">
        <ele>90.099998474121</ele>
        <time>2020-01-15T10:34:20Z</time>
      </trkpt>
      <trkpt lat="43.45333" lon="3.49371">
        <ele>88.099998474121</ele>
        <time>2020-01-15T10:34:25Z</time>
      </trkpt>
      <trkpt lat="43.45348" lon="3.4938">
        <ele>90.099998474121</ele>
        <time>2020-01-15T10:34:42Z</time>
      </trkpt>
      <trkpt lat="43.45356" lon="3.49386">
        <ele>91.099998474121</ele>
        <time>2020-01-15T10:34:52Z</time>
      </trkpt>
      <trkpt lat="43.45363" lon="3.49389">
        <ele>90.099998474121</ele>
        <time>2020-01-15T10:34:59Z</time>
      </trkpt>
      <trkpt lat="43.45366" lon="3.49389">
        <ele>90.099998474121</ele>
        <time>2020-01-15T10:35:02Z</time>
      </trkpt>
      <trkpt lat="43.45368" lon="3.49389">
        <ele>93.099998474121</ele>
        <time>2020-01-15T10:35:21Z</time>
      </trkpt>
      <trkpt lat="43.45369" lon="3.49391">
        <ele>93.099998474121</ele>
        <time>2020-01-15T10:35:24Z</time>
      </trkpt>
      <trkpt lat="43.45369" lon="3.49391">
        <ele>96.099998474121</ele>
        <time>2020-01-15T10:36:37Z</time>
      </trkpt>
      <trkpt lat="43.45369" lon="3.49391">
        <ele>96.099998474121</ele>
        <time>2020-01-15T10:36:50Z</time>
      </trkpt>
    </trkseg>
  </trk>
</gpx>